<?xml version="1.0" encoding="utf-8"?>
<gpx xmlns:xsi="http://www.w3.org/2001/XMLSchema-instance" xmlns:xsd="http://www.w3.org/2001/XMLSchema" version="1.1" creator="Shapelink.com" xmlns="http://www.topografix.com/GPX/1/1" xmlns:gpxtpx="http://www.garmin.com/xmlschemas/TrackPointExtension/v1">
  <metadata>
    <name>Ejecutar 10.01 km, 2020-03-15</name>
    <desc></desc>
    <author><name>Per Rooth</name></author> 
    <time>2020-03-15T09:35:51Z</time>
  </metadata>
  <trk>
    <name>Ejecutar 10.01 km, 2020-03-15</name>
    <trkseg>
      <trkpt lat="57.021920190216" lon="15.013321405611">
        <ele>210.4</ele>
        <time>2020-03-15T09:35:51Z</time>
      </trkpt>
      <trkpt lat="57.021835281569" lon="15.013346048397">
        <ele>210.4</ele>
        <time>2020-03-15T09:35:56Z</time>
      </trkpt>
      <trkpt lat="57.021643000783" lon="15.013443948989">
        <ele>210.6</ele>
        <time>2020-03-15T09:36:02Z</time>
      </trkpt>
      <trkpt lat="57.021461448829" lon="15.013568587842">
        <ele>210.6</ele>
        <time>2020-03-15T09:36:08Z</time>
      </trkpt>
      <trkpt lat="57.021274700097" lon="15.013707811201">
        <ele>211.2</ele>
        <time>2020-03-15T09:36:14Z</time>
      </trkpt>
      <trkpt lat="57.021202112843" lon="15.013755588031">
        <ele>211.4</ele>
        <time>2020-03-15T09:36:16Z</time>
      </trkpt>
      <trkpt lat="57.021060123457" lon="15.013858182487">
        <ele>212.4</ele>
        <time>2020-03-15T09:36:21Z</time>
      </trkpt>
      <trkpt lat="57.020993068257" lon="15.013956083079">
        <ele>211.4</ele>
        <time>2020-03-15T09:36:25Z</time>
      </trkpt>
      <trkpt lat="57.020824172972" lon="15.014150543159">
        <ele>212.2</ele>
        <time>2020-03-15T09:36:37Z</time>
      </trkpt>
      <trkpt lat="57.020774719762" lon="15.014199158179">
        <ele>212.4</ele>
        <time>2020-03-15T09:36:39Z</time>
      </trkpt>
      <trkpt lat="57.020698276834" lon="15.014264034085">
        <ele>211.2</ele>
        <time>2020-03-15T09:36:42Z</time>
      </trkpt>
      <trkpt lat="57.020595095645" lon="15.01434994856">
        <ele>210.2</ele>
        <time>2020-03-15T09:36:46Z</time>
      </trkpt>
      <trkpt lat="57.020497530329" lon="15.014406442566">
        <ele>210.2</ele>
        <time>2020-03-15T09:36:51Z</time>
      </trkpt>
      <trkpt lat="57.020419913935" lon="15.014462433658">
        <ele>211.4</ele>
        <time>2020-03-15T09:36:56Z</time>
      </trkpt>
      <trkpt lat="57.020231907918" lon="15.014549689237">
        <ele>212</ele>
        <time>2020-03-15T09:37:03Z</time>
      </trkpt>
      <trkpt lat="57.019989922465" lon="15.014570643987">
        <ele>212</ele>
        <time>2020-03-15T09:37:09Z</time>
      </trkpt>
      <trkpt lat="57.019913730994" lon="15.014564441381">
        <ele>212.8</ele>
        <time>2020-03-15T09:37:12Z</time>
      </trkpt>
      <trkpt lat="57.019765203726" lon="15.014543738088">
        <ele>212.6</ele>
        <time>2020-03-15T09:37:16Z</time>
      </trkpt>
      <trkpt lat="57.019572839121" lon="15.014480119467">
        <ele>212.6</ele>
        <time>2020-03-15T09:37:22Z</time>
      </trkpt>
      <trkpt lat="57.019374104272" lon="15.014370568034">
        <ele>213.8</ele>
        <time>2020-03-15T09:37:29Z</time>
      </trkpt>
      <trkpt lat="57.0192242359" lon="15.014330251095">
        <ele>215</ele>
        <time>2020-03-15T09:37:34Z</time>
      </trkpt>
      <trkpt lat="57.019077971745" lon="15.014265542827">
        <ele>215.6</ele>
        <time>2020-03-15T09:37:40Z</time>
      </trkpt>
      <trkpt lat="57.019053999511" lon="15.014250287769">
        <ele>216</ele>
        <time>2020-03-15T09:37:41Z</time>
      </trkpt>
      <trkpt lat="57.018930701762" lon="15.014181975284">
        <ele>214.8</ele>
        <time>2020-03-15T09:37:46Z</time>
      </trkpt>
      <trkpt lat="57.018745880867" lon="15.014121038871">
        <ele>214.8</ele>
        <time>2020-03-15T09:37:53Z</time>
      </trkpt>
      <trkpt lat="57.018638089633" lon="15.014057168793">
        <ele>216.2</ele>
        <time>2020-03-15T09:37:58Z</time>
      </trkpt>
      <trkpt lat="57.018510517115" lon="15.014003943728">
        <ele>216.6</ele>
        <time>2020-03-15T09:38:05Z</time>
      </trkpt>
      <trkpt lat="57.018488388899" lon="15.013997489665">
        <ele>216</ele>
        <time>2020-03-15T09:38:07Z</time>
      </trkpt>
      <trkpt lat="57.018447066132" lon="15.01390989881">
        <ele>216</ele>
        <time>2020-03-15T09:38:11Z</time>
      </trkpt>
      <trkpt lat="57.018416388378" lon="15.013784924681">
        <ele>216.4</ele>
        <time>2020-03-15T09:38:14Z</time>
      </trkpt>
      <trkpt lat="57.018398199655" lon="15.013706553916">
        <ele>216.4</ele>
        <time>2020-03-15T09:38:16Z</time>
      </trkpt>
      <trkpt lat="57.018357295983" lon="15.013610162066">
        <ele>216</ele>
        <time>2020-03-15T09:38:19Z</time>
      </trkpt>
      <trkpt lat="57.018316727587" lon="15.013249991823">
        <ele>215.8</ele>
        <time>2020-03-15T09:38:29Z</time>
      </trkpt>
      <trkpt lat="57.018318403967" lon="15.013145888625">
        <ele>216.6</ele>
        <time>2020-03-15T09:38:33Z</time>
      </trkpt>
      <trkpt lat="57.01830725604" lon="15.013089729895">
        <ele>217</ele>
        <time>2020-03-15T09:38:35Z</time>
      </trkpt>
      <trkpt lat="57.018301137253" lon="15.013065422385">
        <ele>217.2</ele>
        <time>2020-03-15T09:38:36Z</time>
      </trkpt>
      <trkpt lat="57.018210528914" lon="15.012856126342">
        <ele>218</ele>
        <time>2020-03-15T09:38:43Z</time>
      </trkpt>
      <trkpt lat="57.01819829134" lon="15.012824861855">
        <ele>218.4</ele>
        <time>2020-03-15T09:38:44Z</time>
      </trkpt>
      <trkpt lat="57.018192004915" lon="15.012789657875">
        <ele>218.8</ele>
        <time>2020-03-15T09:38:45Z</time>
      </trkpt>
      <trkpt lat="57.018180437893" lon="15.012733415326">
        <ele>219.6</ele>
        <time>2020-03-15T09:38:47Z</time>
      </trkpt>
      <trkpt lat="57.018168032681" lon="15.01267105399">
        <ele>220</ele>
        <time>2020-03-15T09:38:50Z</time>
      </trkpt>
      <trkpt lat="57.018062169284" lon="15.012672143637">
        <ele>219</ele>
        <time>2020-03-15T09:39:14Z</time>
      </trkpt>
      <trkpt lat="57.018057810696" lon="15.012748083651">
        <ele>219.8</ele>
        <time>2020-03-15T09:39:17Z</time>
      </trkpt>
      <trkpt lat="57.018011626427" lon="15.012934413288">
        <ele>219.6</ele>
        <time>2020-03-15T09:39:23Z</time>
      </trkpt>
      <trkpt lat="57.017987235098" lon="15.012987470715">
        <ele>219.2</ele>
        <time>2020-03-15T09:39:25Z</time>
      </trkpt>
      <trkpt lat="57.01796946547" lon="15.013037007744">
        <ele>219</ele>
        <time>2020-03-15T09:39:27Z</time>
      </trkpt>
      <trkpt lat="57.017949181272" lon="15.013065254747">
        <ele>219</ele>
        <time>2020-03-15T09:39:29Z</time>
      </trkpt>
      <trkpt lat="57.01791833588" lon="15.013182098433">
        <ele>218.4</ele>
        <time>2020-03-15T09:39:33Z</time>
      </trkpt>
      <trkpt lat="57.017892100533" lon="15.013228031245">
        <ele>217.6</ele>
        <time>2020-03-15T09:39:35Z</time>
      </trkpt>
      <trkpt lat="57.017879024769" lon="15.013238676258">
        <ele>217.4</ele>
        <time>2020-03-15T09:39:36Z</time>
      </trkpt>
      <trkpt lat="57.017851532137" lon="15.013281926862">
        <ele>216.8</ele>
        <time>2020-03-15T09:39:38Z</time>
      </trkpt>
      <trkpt lat="57.017835774165" lon="15.01333825323">
        <ele>215.8</ele>
        <time>2020-03-15T09:39:40Z</time>
      </trkpt>
      <trkpt lat="57.017823871867" lon="15.013375217409">
        <ele>215.2</ele>
        <time>2020-03-15T09:39:41Z</time>
      </trkpt>
      <trkpt lat="57.017808616809" lon="15.013409415561">
        <ele>214.6</ele>
        <time>2020-03-15T09:39:42Z</time>
      </trkpt>
      <trkpt lat="57.01776410892" lon="15.01349415657">
        <ele>213.6</ele>
        <time>2020-03-15T09:39:45Z</time>
      </trkpt>
      <trkpt lat="57.01772303761" lon="15.013539754106">
        <ele>213.2</ele>
        <time>2020-03-15T09:39:47Z</time>
      </trkpt>
      <trkpt lat="57.017681798662" lon="15.013529528188">
        <ele>212.2</ele>
        <time>2020-03-15T09:39:49Z</time>
      </trkpt>
      <trkpt lat="57.017578952749" lon="15.013505220678">
        <ele>214.2</ele>
        <time>2020-03-15T09:39:54Z</time>
      </trkpt>
      <trkpt lat="57.017507874237" lon="15.013488540697">
        <ele>215.4</ele>
        <time>2020-03-15T09:39:57Z</time>
      </trkpt>
      <trkpt lat="57.017308301198" lon="15.013468675594">
        <ele>215</ele>
        <time>2020-03-15T09:40:04Z</time>
      </trkpt>
      <trkpt lat="57.01711283529" lon="15.013453588174">
        <ele>215.4</ele>
        <time>2020-03-15T09:40:11Z</time>
      </trkpt>
      <trkpt lat="57.017089952703" lon="15.013439087487">
        <ele>215.4</ele>
        <time>2020-03-15T09:40:12Z</time>
      </trkpt>
      <trkpt lat="57.016950394068" lon="15.013231970738">
        <ele>214.6</ele>
        <time>2020-03-15T09:40:21Z</time>
      </trkpt>
      <trkpt lat="57.016944610557" lon="15.013224678485">
        <ele>214.8</ele>
        <time>2020-03-15T09:40:22Z</time>
      </trkpt>
      <trkpt lat="57.016923152893" lon="15.013216045128">
        <ele>215.4</ele>
        <time>2020-03-15T09:40:25Z</time>
      </trkpt>
      <trkpt lat="57.016889960569" lon="15.013232557471">
        <ele>215.6</ele>
        <time>2020-03-15T09:40:27Z</time>
      </trkpt>
      <trkpt lat="57.016721568198" lon="15.013377564341">
        <ele>215.4</ele>
        <time>2020-03-15T09:40:36Z</time>
      </trkpt>
      <trkpt lat="57.016675886843" lon="15.013393825227">
        <ele>214.2</ele>
        <time>2020-03-15T09:40:39Z</time>
      </trkpt>
      <trkpt lat="57.016565078125" lon="15.013572443516">
        <ele>213.8</ele>
        <time>2020-03-15T09:40:47Z</time>
      </trkpt>
      <trkpt lat="57.016556947682" lon="15.013689622478">
        <ele>214.2</ele>
        <time>2020-03-15T09:40:52Z</time>
      </trkpt>
      <trkpt lat="57.01654789523" lon="15.013739997697">
        <ele>214.4</ele>
        <time>2020-03-15T09:40:54Z</time>
      </trkpt>
      <trkpt lat="57.016487713188" lon="15.013931943207">
        <ele>215.2</ele>
        <time>2020-03-15T09:41:00Z</time>
      </trkpt>
      <trkpt lat="57.016486036808" lon="15.014106705822">
        <ele>215</ele>
        <time>2020-03-15T09:41:05Z</time>
      </trkpt>
      <trkpt lat="57.01637690447" lon="15.01424182205">
        <ele>215.2</ele>
        <time>2020-03-15T09:41:14Z</time>
      </trkpt>
      <trkpt lat="57.016359386299" lon="15.01425774766">
        <ele>215.4</ele>
        <time>2020-03-15T09:41:15Z</time>
      </trkpt>
      <trkpt lat="57.016289397434" lon="15.014363275781">
        <ele>215.2</ele>
        <time>2020-03-15T09:41:20Z</time>
      </trkpt>
      <trkpt lat="57.016279171516" lon="15.014399988503">
        <ele>215.2</ele>
        <time>2020-03-15T09:41:22Z</time>
      </trkpt>
      <trkpt lat="57.016250170142" lon="15.014428235506">
        <ele>215.2</ele>
        <time>2020-03-15T09:41:24Z</time>
      </trkpt>
      <trkpt lat="57.01620926647" lon="15.01450836647">
        <ele>215.6</ele>
        <time>2020-03-15T09:41:28Z</time>
      </trkpt>
      <trkpt lat="57.016170458273" lon="15.014500990398">
        <ele>215.8</ele>
        <time>2020-03-15T09:41:31Z</time>
      </trkpt>
      <trkpt lat="57.016133074999" lon="15.014488417548">
        <ele>216.2</ele>
        <time>2020-03-15T09:41:35Z</time>
      </trkpt>
      <trkpt lat="57.016120502149" lon="15.014505097529">
        <ele>216.4</ele>
        <time>2020-03-15T09:41:36Z</time>
      </trkpt>
      <trkpt lat="57.016112204068" lon="15.014516916008">
        <ele>216.8</ele>
        <time>2020-03-15T09:41:37Z</time>
      </trkpt>
      <trkpt lat="57.016092338965" lon="15.014514149981">
        <ele>217.2</ele>
        <time>2020-03-15T09:41:39Z</time>
      </trkpt>
      <trkpt lat="57.016082783599" lon="15.014507109185">
        <ele>217.6</ele>
        <time>2020-03-15T09:41:40Z</time>
      </trkpt>
      <trkpt lat="57.016047663438" lon="15.014485064788">
        <ele>218</ele>
        <time>2020-03-15T09:41:43Z</time>
      </trkpt>
      <trkpt lat="57.016018745883" lon="15.014470564101">
        <ele>218.2</ele>
        <time>2020-03-15T09:41:45Z</time>
      </trkpt>
      <trkpt lat="57.015947667371" lon="15.014464110038">
        <ele>218.2</ele>
        <time>2020-03-15T09:41:50Z</time>
      </trkpt>
      <trkpt lat="57.01588656332" lon="15.014379536667">
        <ele>217.4</ele>
        <time>2020-03-15T09:41:59Z</time>
      </trkpt>
      <trkpt lat="57.015875163936" lon="15.014315666589">
        <ele>216.8</ele>
        <time>2020-03-15T09:42:03Z</time>
      </trkpt>
      <trkpt lat="57.015869548063" lon="15.014306195042">
        <ele>216.6</ele>
        <time>2020-03-15T09:42:04Z</time>
      </trkpt>
      <trkpt lat="57.015854544462" lon="15.014293035459">
        <ele>216</ele>
        <time>2020-03-15T09:42:06Z</time>
      </trkpt>
      <trkpt lat="57.015843480354" lon="15.014268141216">
        <ele>216</ele>
        <time>2020-03-15T09:42:09Z</time>
      </trkpt>
      <trkpt lat="57.015846916933" lon="15.014241319136">
        <ele>216.2</ele>
        <time>2020-03-15T09:42:12Z</time>
      </trkpt>
      <trkpt lat="57.015845827286" lon="15.014160349982">
        <ele>215.6</ele>
        <time>2020-03-15T09:42:19Z</time>
      </trkpt>
      <trkpt lat="57.015838032119" lon="15.014067729987">
        <ele>214.6</ele>
        <time>2020-03-15T09:42:24Z</time>
      </trkpt>
      <trkpt lat="57.015832248608" lon="15.014056330603">
        <ele>214.4</ele>
        <time>2020-03-15T09:42:25Z</time>
      </trkpt>
      <trkpt lat="57.015732587817" lon="15.013751145624">
        <ele>214.8</ele>
        <time>2020-03-15T09:42:36Z</time>
      </trkpt>
      <trkpt lat="57.015715153465" lon="15.01371543873">
        <ele>214.4</ele>
        <time>2020-03-15T09:42:38Z</time>
      </trkpt>
      <trkpt lat="57.01567198668" lon="15.013671266117">
        <ele>213.8</ele>
        <time>2020-03-15T09:42:43Z</time>
      </trkpt>
      <trkpt lat="57.015665867893" lon="15.013642851476">
        <ele>213.8</ele>
        <time>2020-03-15T09:42:45Z</time>
      </trkpt>
      <trkpt lat="57.015638123804" lon="15.013614772111">
        <ele>214.4</ele>
        <time>2020-03-15T09:42:49Z</time>
      </trkpt>
      <trkpt lat="57.015616582321" lon="15.01359557756">
        <ele>214.4</ele>
        <time>2020-03-15T09:42:51Z</time>
      </trkpt>
      <trkpt lat="57.015578779952" lon="15.013552746051">
        <ele>214.6</ele>
        <time>2020-03-15T09:42:55Z</time>
      </trkpt>
      <trkpt lat="57.01557391845" lon="15.013509579266">
        <ele>214.8</ele>
        <time>2020-03-15T09:42:58Z</time>
      </trkpt>
      <trkpt lat="57.015572325889" lon="15.013454845459">
        <ele>215</ele>
        <time>2020-03-15T09:43:03Z</time>
      </trkpt>
      <trkpt lat="57.015517675901" lon="15.013399105824">
        <ele>215.6</ele>
        <time>2020-03-15T09:43:09Z</time>
      </trkpt>
      <trkpt lat="57.015494458038" lon="15.013384856594">
        <ele>215.6</ele>
        <time>2020-03-15T09:43:14Z</time>
      </trkpt>
      <trkpt lat="57.015497810798" lon="15.01337848635">
        <ele>215.6</ele>
        <time>2020-03-15T09:43:16Z</time>
      </trkpt>
      <trkpt lat="57.015487249604" lon="15.013353927383">
        <ele>216.8</ele>
        <time>2020-03-15T09:43:47Z</time>
      </trkpt>
      <trkpt lat="57.015462355361" lon="15.013295170264">
        <ele>217.4</ele>
        <time>2020-03-15T09:43:51Z</time>
      </trkpt>
      <trkpt lat="57.015458415868" lon="15.013145050435">
        <ele>217</ele>
        <time>2020-03-15T09:43:58Z</time>
      </trkpt>
      <trkpt lat="57.015446345932" lon="15.013069697154">
        <ele>217</ele>
        <time>2020-03-15T09:44:02Z</time>
      </trkpt>
      <trkpt lat="57.015435281824" lon="15.013034912269">
        <ele>216.8</ele>
        <time>2020-03-15T09:44:04Z</time>
      </trkpt>
      <trkpt lat="57.015421703146" lon="15.013010437121">
        <ele>216.4</ele>
        <time>2020-03-15T09:44:06Z</time>
      </trkpt>
      <trkpt lat="57.015420362042" lon="15.01298286067">
        <ele>215.2</ele>
        <time>2020-03-15T09:44:08Z</time>
      </trkpt>
      <trkpt lat="57.015428827761" lon="15.0129468185">
        <ele>214.2</ele>
        <time>2020-03-15T09:44:12Z</time>
      </trkpt>
      <trkpt lat="57.015358671258" lon="15.012829136624">
        <ele>215.2</ele>
        <time>2020-03-15T09:44:24Z</time>
      </trkpt>
      <trkpt lat="57.01535095991" lon="15.01282611914">
        <ele>215.4</ele>
        <time>2020-03-15T09:44:25Z</time>
      </trkpt>
      <trkpt lat="57.015341069268" lon="15.012823772208">
        <ele>215.6</ele>
        <time>2020-03-15T09:44:26Z</time>
      </trkpt>
      <trkpt lat="57.01532497602" lon="15.012755040628">
        <ele>215</ele>
        <time>2020-03-15T09:44:32Z</time>
      </trkpt>
      <trkpt lat="57.015310140057" lon="15.012734421154">
        <ele>214.4</ele>
        <time>2020-03-15T09:44:35Z</time>
      </trkpt>
      <trkpt lat="57.015258842829" lon="15.012709107816">
        <ele>215.6</ele>
        <time>2020-03-15T09:45:10Z</time>
      </trkpt>
      <trkpt lat="57.015212826198" lon="15.012734253516">
        <ele>216.4</ele>
        <time>2020-03-15T09:45:13Z</time>
      </trkpt>
      <trkpt lat="57.015197403502" lon="15.012744647072">
        <ele>216.8</ele>
        <time>2020-03-15T09:45:14Z</time>
      </trkpt>
      <trkpt lat="57.015066729681" lon="15.012853192677">
        <ele>218</ele>
        <time>2020-03-15T09:45:21Z</time>
      </trkpt>
      <trkpt lat="57.015020377774" lon="15.012907255932">
        <ele>219</ele>
        <time>2020-03-15T09:45:24Z</time>
      </trkpt>
      <trkpt lat="57.014989113287" lon="15.012929803243">
        <ele>220</ele>
        <time>2020-03-15T09:45:26Z</time>
      </trkpt>
      <trkpt lat="57.014951310918" lon="15.012921588981">
        <ele>221</ele>
        <time>2020-03-15T09:45:30Z</time>
      </trkpt>
      <trkpt lat="57.015043763275" lon="15.012848163537">
        <ele>220</ele>
        <time>2020-03-15T09:45:54Z</time>
      </trkpt>
      <trkpt lat="57.015082236196" lon="15.012824107484">
        <ele>219.4</ele>
        <time>2020-03-15T09:45:56Z</time>
      </trkpt>
      <trkpt lat="57.015122050221" lon="15.012802063087">
        <ele>218.6</ele>
        <time>2020-03-15T09:45:58Z</time>
      </trkpt>
      <trkpt lat="57.015178041313" lon="15.012772726437">
        <ele>217</ele>
        <time>2020-03-15T09:46:01Z</time>
      </trkpt>
      <trkpt lat="57.015221459555" lon="15.012684548849">
        <ele>215.6</ele>
        <time>2020-03-15T09:46:05Z</time>
      </trkpt>
      <trkpt lat="57.015229254722" lon="15.012669126153">
        <ele>215.4</ele>
        <time>2020-03-15T09:46:06Z</time>
      </trkpt>
      <trkpt lat="57.015331430083" lon="15.012509199501">
        <ele>214.6</ele>
        <time>2020-03-15T09:46:13Z</time>
      </trkpt>
      <trkpt lat="57.015348361521" lon="15.01245144821">
        <ele>214.4</ele>
        <time>2020-03-15T09:46:15Z</time>
      </trkpt>
      <trkpt lat="57.015393456143" lon="15.012346339184">
        <ele>214.6</ele>
        <time>2020-03-15T09:46:20Z</time>
      </trkpt>
      <trkpt lat="57.015434862729" lon="15.012261849632">
        <ele>214</ele>
        <time>2020-03-15T09:46:25Z</time>
      </trkpt>
      <trkpt lat="57.015474760573" lon="15.012141988462">
        <ele>214</ele>
        <time>2020-03-15T09:46:30Z</time>
      </trkpt>
      <trkpt lat="57.015414913807" lon="15.011971668254">
        <ele>214.4</ele>
        <time>2020-03-15T09:46:36Z</time>
      </trkpt>
      <trkpt lat="57.015388007908" lon="15.011839485691">
        <ele>214.6</ele>
        <time>2020-03-15T09:46:40Z</time>
      </trkpt>
      <trkpt lat="57.015343583838" lon="15.011755415234">
        <ele>214.8</ele>
        <time>2020-03-15T09:46:43Z</time>
      </trkpt>
      <trkpt lat="57.015295807008" lon="15.011601355912">
        <ele>215.8</ele>
        <time>2020-03-15T09:46:48Z</time>
      </trkpt>
      <trkpt lat="57.015134958347" lon="15.011392562783">
        <ele>215.8</ele>
        <time>2020-03-15T09:46:58Z</time>
      </trkpt>
      <trkpt lat="57.015103023308" lon="15.011269265034">
        <ele>215.6</ele>
        <time>2020-03-15T09:47:03Z</time>
      </trkpt>
      <trkpt lat="57.015111153751" lon="15.011229283371">
        <ele>214.8</ele>
        <time>2020-03-15T09:47:06Z</time>
      </trkpt>
      <trkpt lat="57.015111740484" lon="15.011203550938">
        <ele>214.8</ele>
        <time>2020-03-15T09:47:07Z</time>
      </trkpt>
      <trkpt lat="57.015127917551" lon="15.011133897349">
        <ele>214.8</ele>
        <time>2020-03-15T09:47:09Z</time>
      </trkpt>
      <trkpt lat="57.015137640555" lon="15.010792502562">
        <ele>214.4</ele>
        <time>2020-03-15T09:47:20Z</time>
      </trkpt>
      <trkpt lat="57.015155996916" lon="15.010709773209">
        <ele>215</ele>
        <time>2020-03-15T09:47:25Z</time>
      </trkpt>
      <trkpt lat="57.015181226435" lon="15.01067364722">
        <ele>215</ele>
        <time>2020-03-15T09:47:29Z</time>
      </trkpt>
      <trkpt lat="57.015184411557" lon="15.01064095781">
        <ele>215</ele>
        <time>2020-03-15T09:47:31Z</time>
      </trkpt>
      <trkpt lat="57.015209054343" lon="15.010622769087">
        <ele>214.8</ele>
        <time>2020-03-15T09:47:34Z</time>
      </trkpt>
      <trkpt lat="57.015256831173" lon="15.010274920237">
        <ele>214.8</ele>
        <time>2020-03-15T09:47:47Z</time>
      </trkpt>
      <trkpt lat="57.015263536693" lon="15.010072245895">
        <ele>216</ele>
        <time>2020-03-15T09:47:54Z</time>
      </trkpt>
      <trkpt lat="57.015262027951" lon="15.009963281195">
        <ele>217.2</ele>
        <time>2020-03-15T09:47:58Z</time>
      </trkpt>
      <trkpt lat="57.01527217005" lon="15.009896058357">
        <ele>217.4</ele>
        <time>2020-03-15T09:48:00Z</time>
      </trkpt>
      <trkpt lat="57.015310978247" lon="15.009778292662">
        <ele>218.2</ele>
        <time>2020-03-15T09:48:04Z</time>
      </trkpt>
      <trkpt lat="57.015293292438" lon="15.009629849213">
        <ele>218.6</ele>
        <time>2020-03-15T09:48:11Z</time>
      </trkpt>
      <trkpt lat="57.01527971376" lon="15.009588610265">
        <ele>218.6</ele>
        <time>2020-03-15T09:48:13Z</time>
      </trkpt>
      <trkpt lat="57.015254484241" lon="15.009519711047">
        <ele>218.4</ele>
        <time>2020-03-15T09:48:16Z</time>
      </trkpt>
      <trkpt lat="57.01521098218" lon="15.009420972265">
        <ele>218.4</ele>
        <time>2020-03-15T09:48:22Z</time>
      </trkpt>
      <trkpt lat="57.015187764317" lon="15.009336398894">
        <ele>218.6</ele>
        <time>2020-03-15T09:48:24Z</time>
      </trkpt>
      <trkpt lat="57.015113919778" lon="15.009168593256">
        <ele>219</ele>
        <time>2020-03-15T09:48:30Z</time>
      </trkpt>
      <trkpt lat="57.015092462114" lon="15.009104890816">
        <ele>219</ele>
        <time>2020-03-15T09:48:34Z</time>
      </trkpt>
      <trkpt lat="57.015040159058" lon="15.008979497592">
        <ele>219.2</ele>
        <time>2020-03-15T09:48:38Z</time>
      </trkpt>
      <trkpt lat="57.014996154083" lon="15.008842704984">
        <ele>220.2</ele>
        <time>2020-03-15T09:48:43Z</time>
      </trkpt>
      <trkpt lat="57.01497880355" lon="15.008761316735">
        <ele>220.6</ele>
        <time>2020-03-15T09:48:46Z</time>
      </trkpt>
      <trkpt lat="57.014958267895" lon="15.008628295982">
        <ele>220.8</ele>
        <time>2020-03-15T09:48:50Z</time>
      </trkpt>
      <trkpt lat="57.014989280925" lon="15.008456718489">
        <ele>221</ele>
        <time>2020-03-15T09:48:55Z</time>
      </trkpt>
      <trkpt lat="57.01497712717" lon="15.008391842583">
        <ele>221.4</ele>
        <time>2020-03-15T09:48:57Z</time>
      </trkpt>
      <trkpt lat="57.014892637618" lon="15.00809621297">
        <ele>221.8</ele>
        <time>2020-03-15T09:49:06Z</time>
      </trkpt>
      <trkpt lat="57.014820804735" lon="15.007871745688">
        <ele>222.4</ele>
        <time>2020-03-15T09:49:12Z</time>
      </trkpt>
      <trkpt lat="57.014684682679" lon="15.007637974497">
        <ele>222.4</ele>
        <time>2020-03-15T09:49:18Z</time>
      </trkpt>
      <trkpt lat="57.014569431554" lon="15.007318959383">
        <ele>222.6</ele>
        <time>2020-03-15T09:49:25Z</time>
      </trkpt>
      <trkpt lat="57.014493156264" lon="15.007014277318">
        <ele>221.4</ele>
        <time>2020-03-15T09:49:31Z</time>
      </trkpt>
      <trkpt lat="57.014489719685" lon="15.006968344506">
        <ele>221.2</ele>
        <time>2020-03-15T09:49:32Z</time>
      </trkpt>
      <trkpt lat="57.014463903433" lon="15.006753264952">
        <ele>220</ele>
        <time>2020-03-15T09:49:36Z</time>
      </trkpt>
      <trkpt lat="57.014443954511" lon="15.006652430695">
        <ele>219.4</ele>
        <time>2020-03-15T09:49:38Z</time>
      </trkpt>
      <trkpt lat="57.01442895091" lon="15.006525025815">
        <ele>218.8</ele>
        <time>2020-03-15T09:49:41Z</time>
      </trkpt>
      <trkpt lat="57.014386622315" lon="15.006183379571">
        <ele>219</ele>
        <time>2020-03-15T09:49:47Z</time>
      </trkpt>
      <trkpt lat="57.014330379766" lon="15.005836536549">
        <ele>218.2</ele>
        <time>2020-03-15T09:49:54Z</time>
      </trkpt>
      <trkpt lat="57.014300121107" lon="15.005697648466">
        <ele>217.6</ele>
        <time>2020-03-15T09:49:57Z</time>
      </trkpt>
      <trkpt lat="57.014198532479" lon="15.00538299194">
        <ele>217.6</ele>
        <time>2020-03-15T09:50:03Z</time>
      </trkpt>
      <trkpt lat="57.014061739871" lon="15.005082752282">
        <ele>217</ele>
        <time>2020-03-15T09:50:10Z</time>
      </trkpt>
      <trkpt lat="57.013918996114" lon="15.0048499031">
        <ele>216.8</ele>
        <time>2020-03-15T09:50:17Z</time>
      </trkpt>
      <trkpt lat="57.01388580379" lon="15.004825847047">
        <ele>216.6</ele>
        <time>2020-03-15T09:50:18Z</time>
      </trkpt>
      <trkpt lat="57.013706347311" lon="15.004692407199">
        <ele>216</ele>
        <time>2020-03-15T09:50:24Z</time>
      </trkpt>
      <trkpt lat="57.013559999337" lon="15.00447858493">
        <ele>216</ele>
        <time>2020-03-15T09:50:31Z</time>
      </trkpt>
      <trkpt lat="57.013542397347" lon="15.004454025963">
        <ele>215.4</ele>
        <time>2020-03-15T09:50:32Z</time>
      </trkpt>
      <trkpt lat="57.013504594978" lon="15.004403399287">
        <ele>214.4</ele>
        <time>2020-03-15T09:50:34Z</time>
      </trkpt>
      <trkpt lat="57.013323043024" lon="15.004228385215">
        <ele>213.4</ele>
        <time>2020-03-15T09:50:42Z</time>
      </trkpt>
      <trkpt lat="57.013148028952" lon="15.0040955321">
        <ele>214.8</ele>
        <time>2020-03-15T09:50:48Z</time>
      </trkpt>
      <trkpt lat="57.012980893866" lon="15.003940969864">
        <ele>214</ele>
        <time>2020-03-15T09:50:53Z</time>
      </trkpt>
      <trkpt lat="57.012800850654" lon="15.003751538924">
        <ele>214.4</ele>
        <time>2020-03-15T09:50:59Z</time>
      </trkpt>
      <trkpt lat="57.012614353379" lon="15.003607621701">
        <ele>214.4</ele>
        <time>2020-03-15T09:51:05Z</time>
      </trkpt>
      <trkpt lat="57.012474208011" lon="15.003364714239">
        <ele>213.6</ele>
        <time>2020-03-15T09:51:12Z</time>
      </trkpt>
      <trkpt lat="57.01244663156" lon="15.003285924379">
        <ele>213.2</ele>
        <time>2020-03-15T09:51:14Z</time>
      </trkpt>
      <trkpt lat="57.012395921065" lon="15.003193052927">
        <ele>212</ele>
        <time>2020-03-15T09:51:17Z</time>
      </trkpt>
      <trkpt lat="57.012363483112" lon="15.003126752098">
        <ele>211.8</ele>
        <time>2020-03-15T09:51:19Z</time>
      </trkpt>
      <trkpt lat="57.012188636678" lon="15.002896752762">
        <ele>212.8</ele>
        <time>2020-03-15T09:51:26Z</time>
      </trkpt>
      <trkpt lat="57.012149157929" lon="15.002864314809">
        <ele>213.2</ele>
        <time>2020-03-15T09:51:27Z</time>
      </trkpt>
      <trkpt lat="57.012004151059" lon="15.002661975743">
        <ele>213.6</ele>
        <time>2020-03-15T09:51:32Z</time>
      </trkpt>
      <trkpt lat="57.011928043407" lon="15.002317563472">
        <ele>213</ele>
        <time>2020-03-15T09:51:40Z</time>
      </trkpt>
      <trkpt lat="57.011963247387" lon="15.001987819526">
        <ele>213</ele>
        <time>2020-03-15T09:51:47Z</time>
      </trkpt>
      <trkpt lat="57.012110098275" lon="15.001799478233">
        <ele>212.6</ele>
        <time>2020-03-15T09:51:55Z</time>
      </trkpt>
      <trkpt lat="57.012173046344" lon="15.001714904862">
        <ele>213</ele>
        <time>2020-03-15T09:51:59Z</time>
      </trkpt>
      <trkpt lat="57.012196683302" lon="15.001653214078">
        <ele>213.4</ele>
        <time>2020-03-15T09:52:01Z</time>
      </trkpt>
      <trkpt lat="57.012207160677" lon="15.001505944095">
        <ele>214.2</ele>
        <time>2020-03-15T09:52:05Z</time>
      </trkpt>
      <trkpt lat="57.012183020805" lon="15.001158262883">
        <ele>214.6</ele>
        <time>2020-03-15T09:52:12Z</time>
      </trkpt>
      <trkpt lat="57.012206238668" lon="15.001086765276">
        <ele>215.4</ele>
        <time>2020-03-15T09:52:14Z</time>
      </trkpt>
      <trkpt lat="57.012221912821" lon="15.001014932393">
        <ele>216</ele>
        <time>2020-03-15T09:52:16Z</time>
      </trkpt>
      <trkpt lat="57.012227193418" lon="15.000969251038">
        <ele>216.4</ele>
        <time>2020-03-15T09:52:17Z</time>
      </trkpt>
      <trkpt lat="57.012273796782" lon="15.000616708324">
        <ele>215.8</ele>
        <time>2020-03-15T09:52:26Z</time>
      </trkpt>
      <trkpt lat="57.012295924998" lon="15.000545881269">
        <ele>216</ele>
        <time>2020-03-15T09:52:28Z</time>
      </trkpt>
      <trkpt lat="57.012365410949" lon="15.00025159276">
        <ele>217.8</ele>
        <time>2020-03-15T09:52:35Z</time>
      </trkpt>
      <trkpt lat="57.012399944377" lon="15.000144052983">
        <ele>219</ele>
        <time>2020-03-15T09:52:38Z</time>
      </trkpt>
      <trkpt lat="57.012427437009" lon="14.999920591529">
        <ele>220</ele>
        <time>2020-03-15T09:52:44Z</time>
      </trkpt>
      <trkpt lat="57.012462389532" lon="14.999720264119">
        <ele>221.2</ele>
        <time>2020-03-15T09:52:49Z</time>
      </trkpt>
      <trkpt lat="57.012482589911" lon="14.999677516429">
        <ele>221.4</ele>
        <time>2020-03-15T09:52:51Z</time>
      </trkpt>
      <trkpt lat="57.012506226869" lon="14.99960870103">
        <ele>221</ele>
        <time>2020-03-15T09:52:55Z</time>
      </trkpt>
      <trkpt lat="57.012542939591" lon="14.99953829307">
        <ele>220.6</ele>
        <time>2020-03-15T09:52:58Z</time>
      </trkpt>
      <trkpt lat="57.012597589579" lon="14.999371996174">
        <ele>220.6</ele>
        <time>2020-03-15T09:53:04Z</time>
      </trkpt>
      <trkpt lat="57.01263187155" lon="14.999343749171">
        <ele>220.6</ele>
        <time>2020-03-15T09:53:09Z</time>
      </trkpt>
      <trkpt lat="57.012655257051" lon="14.999297900178">
        <ele>220.8</ele>
        <time>2020-03-15T09:53:57Z</time>
      </trkpt>
      <trkpt lat="57.012695909266" lon="14.999300917662">
        <ele>220.6</ele>
        <time>2020-03-15T09:54:00Z</time>
      </trkpt>
      <trkpt lat="57.012756175127" lon="14.999295385608">
        <ele>220</ele>
        <time>2020-03-15T09:54:03Z</time>
      </trkpt>
      <trkpt lat="57.012867989673" lon="14.999220199965">
        <ele>218.6</ele>
        <time>2020-03-15T09:54:09Z</time>
      </trkpt>
      <trkpt lat="57.012911324096" lon="14.999223217449">
        <ele>217.4</ele>
        <time>2020-03-15T09:54:12Z</time>
      </trkpt>
      <trkpt lat="57.012931189199" lon="14.999227492218">
        <ele>217</ele>
        <time>2020-03-15T09:54:14Z</time>
      </trkpt>
      <trkpt lat="57.012962286048" lon="14.999228581865">
        <ele>216.6</ele>
        <time>2020-03-15T09:54:17Z</time>
      </trkpt>
      <trkpt lat="57.01297301488" lon="14.999218439766">
        <ele>216.4</ele>
        <time>2020-03-15T09:54:18Z</time>
      </trkpt>
      <trkpt lat="57.012986174463" lon="14.999209806409">
        <ele>216.2</ele>
        <time>2020-03-15T09:54:19Z</time>
      </trkpt>
      <trkpt lat="57.013086086711" lon="14.99924744114">
        <ele>216.6</ele>
        <time>2020-03-15T09:54:24Z</time>
      </trkpt>
      <trkpt lat="57.013171246815" lon="14.999274514677">
        <ele>216.8</ele>
        <time>2020-03-15T09:54:28Z</time>
      </trkpt>
      <trkpt lat="57.013205947881" lon="14.999260768361">
        <ele>216.6</ele>
        <time>2020-03-15T09:54:30Z</time>
      </trkpt>
      <trkpt lat="57.013257664204" lon="14.999192623514">
        <ele>216.2</ele>
        <time>2020-03-15T09:54:34Z</time>
      </trkpt>
      <trkpt lat="57.013321366644" lon="14.999158928276">
        <ele>216.6</ele>
        <time>2020-03-15T09:54:37Z</time>
      </trkpt>
      <trkpt lat="57.01340049178" lon="14.99913093273">
        <ele>217.4</ele>
        <time>2020-03-15T09:54:40Z</time>
      </trkpt>
      <trkpt lat="57.013554215826" lon="14.999130848911">
        <ele>218.6</ele>
        <time>2020-03-15T09:54:45Z</time>
      </trkpt>
      <trkpt lat="57.013605093959" lon="14.999147528892">
        <ele>218.8</ele>
        <time>2020-03-15T09:54:48Z</time>
      </trkpt>
      <trkpt lat="57.013629401469" lon="14.999107128134">
        <ele>218.8</ele>
        <time>2020-03-15T09:54:50Z</time>
      </trkpt>
      <trkpt lat="57.013708191329" lon="14.998808061942">
        <ele>218.8</ele>
        <time>2020-03-15T09:54:57Z</time>
      </trkpt>
      <trkpt lat="57.013777761099" lon="14.998660540502">
        <ele>220</ele>
        <time>2020-03-15T09:55:01Z</time>
      </trkpt>
      <trkpt lat="57.013920085761" lon="14.998434648297">
        <ele>219.2</ele>
        <time>2020-03-15T09:55:08Z</time>
      </trkpt>
      <trkpt lat="57.013982363278" lon="14.998342950311">
        <ele>218.8</ele>
        <time>2020-03-15T09:55:11Z</time>
      </trkpt>
      <trkpt lat="57.014122927741" lon="14.998125188549">
        <ele>218</ele>
        <time>2020-03-15T09:55:17Z</time>
      </trkpt>
      <trkpt lat="57.014267683154" lon="14.99789795524">
        <ele>219.2</ele>
        <time>2020-03-15T09:55:23Z</time>
      </trkpt>
      <trkpt lat="57.014413528214" lon="14.997690251758">
        <ele>218.6</ele>
        <time>2020-03-15T09:55:29Z</time>
      </trkpt>
      <trkpt lat="57.014462897605" lon="14.99734977898">
        <ele>218.6</ele>
        <time>2020-03-15T09:55:34Z</time>
      </trkpt>
      <trkpt lat="57.01435938114" lon="14.997116426884">
        <ele>217.8</ele>
        <time>2020-03-15T09:55:39Z</time>
      </trkpt>
      <trkpt lat="57.014217475573" lon="14.996921380071">
        <ele>217.6</ele>
        <time>2020-03-15T09:55:45Z</time>
      </trkpt>
      <trkpt lat="57.014074983273" lon="14.996736307719">
        <ele>216.6</ele>
        <time>2020-03-15T09:55:51Z</time>
      </trkpt>
      <trkpt lat="57.013893431319" lon="14.996555761593">
        <ele>216.6</ele>
        <time>2020-03-15T09:55:58Z</time>
      </trkpt>
      <trkpt lat="57.013725458043" lon="14.996378065313">
        <ele>216.8</ele>
        <time>2020-03-15T09:56:05Z</time>
      </trkpt>
      <trkpt lat="57.013680195783" lon="14.996318637642">
        <ele>218.2</ele>
        <time>2020-03-15T09:56:07Z</time>
      </trkpt>
      <trkpt lat="57.013523118977" lon="14.996097271663">
        <ele>218</ele>
        <time>2020-03-15T09:56:14Z</time>
      </trkpt>
      <trkpt lat="57.013375681356" lon="14.995850592346">
        <ele>217.4</ele>
        <time>2020-03-15T09:56:21Z</time>
      </trkpt>
      <trkpt lat="57.013336705521" lon="14.995775239065">
        <ele>217</ele>
        <time>2020-03-15T09:56:23Z</time>
      </trkpt>
      <trkpt lat="57.013276020565" lon="14.995662334872">
        <ele>216.6</ele>
        <time>2020-03-15T09:56:26Z</time>
      </trkpt>
      <trkpt lat="57.013176946507" lon="14.995336949514">
        <ele>217</ele>
        <time>2020-03-15T09:56:33Z</time>
      </trkpt>
      <trkpt lat="57.013132103342" lon="14.995124971263">
        <ele>218</ele>
        <time>2020-03-15T09:56:38Z</time>
      </trkpt>
      <trkpt lat="57.013082650132" lon="14.994847446554">
        <ele>219.2</ele>
        <time>2020-03-15T09:56:44Z</time>
      </trkpt>
      <trkpt lat="57.013088852738" lon="14.994453078159">
        <ele>219.6</ele>
        <time>2020-03-15T09:56:51Z</time>
      </trkpt>
      <trkpt lat="57.013101174131" lon="14.994351992445">
        <ele>220.2</ele>
        <time>2020-03-15T09:56:54Z</time>
      </trkpt>
      <trkpt lat="57.013120117225" lon="14.994148815189">
        <ele>221.2</ele>
        <time>2020-03-15T09:56:58Z</time>
      </trkpt>
      <trkpt lat="57.013141071975" lon="14.993793925543">
        <ele>221.2</ele>
        <time>2020-03-15T09:57:04Z</time>
      </trkpt>
      <trkpt lat="57.013136210473" lon="14.993625868448">
        <ele>219.8</ele>
        <time>2020-03-15T09:57:08Z</time>
      </trkpt>
      <trkpt lat="57.013135707559" lon="14.993441550467">
        <ele>218.6</ele>
        <time>2020-03-15T09:57:10Z</time>
      </trkpt>
      <trkpt lat="57.013135959016" lon="14.993324706781">
        <ele>217.4</ele>
        <time>2020-03-15T09:57:13Z</time>
      </trkpt>
      <trkpt lat="57.013128415306" lon="14.992971409696">
        <ele>216.4</ele>
        <time>2020-03-15T09:57:18Z</time>
      </trkpt>
      <trkpt lat="57.013128415306" lon="14.992971409696">
        <ele>216.4</ele>
        <time>2020-03-15T09:57:19Z</time>
      </trkpt>
      <trkpt lat="57.013099330113" lon="14.992599840069">
        <ele>215</ele>
        <time>2020-03-15T09:57:24Z</time>
      </trkpt>
      <trkpt lat="57.013087260177" lon="14.992480565632">
        <ele>213.6</ele>
        <time>2020-03-15T09:57:27Z</time>
      </trkpt>
      <trkpt lat="57.013058845536" lon="14.992148726211">
        <ele>212.4</ele>
        <time>2020-03-15T09:57:33Z</time>
      </trkpt>
      <trkpt lat="57.013020875529" lon="14.9917741391">
        <ele>211.4</ele>
        <time>2020-03-15T09:57:39Z</time>
      </trkpt>
      <trkpt lat="57.013010314335" lon="14.991666431685">
        <ele>211</ele>
        <time>2020-03-15T09:57:42Z</time>
      </trkpt>
      <trkpt lat="57.012978546934" lon="14.991318247559">
        <ele>210.6</ele>
        <time>2020-03-15T09:57:48Z</time>
      </trkpt>
      <trkpt lat="57.012969578301" lon="14.991203164072">
        <ele>209.8</ele>
        <time>2020-03-15T09:57:50Z</time>
      </trkpt>
      <trkpt lat="57.012946611895" lon="14.990866295511">
        <ele>208.8</ele>
        <time>2020-03-15T09:57:56Z</time>
      </trkpt>
      <trkpt lat="57.012887770957" lon="14.990516183548">
        <ele>209</ele>
        <time>2020-03-15T09:58:03Z</time>
      </trkpt>
      <trkpt lat="57.012857009384" lon="14.990244609988">
        <ele>208.8</ele>
        <time>2020-03-15T09:58:08Z</time>
      </trkpt>
      <trkpt lat="57.012835384082" lon="14.990069763554">
        <ele>207.4</ele>
        <time>2020-03-15T09:58:11Z</time>
      </trkpt>
      <trkpt lat="57.012830354942" lon="14.989924169951">
        <ele>206.2</ele>
        <time>2020-03-15T09:58:14Z</time>
      </trkpt>
      <trkpt lat="57.012789115994" lon="14.989595515652">
        <ele>206.2</ele>
        <time>2020-03-15T09:58:21Z</time>
      </trkpt>
      <trkpt lat="57.012767742149" lon="14.989340957349">
        <ele>205.2</ele>
        <time>2020-03-15T09:58:26Z</time>
      </trkpt>
      <trkpt lat="57.012775956411" lon="14.989061504803">
        <ele>204</ele>
        <time>2020-03-15T09:58:31Z</time>
      </trkpt>
      <trkpt lat="57.012834294435" lon="14.988900153228">
        <ele>202.8</ele>
        <time>2020-03-15T09:58:35Z</time>
      </trkpt>
      <trkpt lat="57.012953149777" lon="14.988600584122">
        <ele>201.8</ele>
        <time>2020-03-15T09:58:43Z</time>
      </trkpt>
      <trkpt lat="57.013028419239" lon="14.988278551524">
        <ele>201.2</ele>
        <time>2020-03-15T09:58:50Z</time>
      </trkpt>
      <trkpt lat="57.013089355652" lon="14.987945203361">
        <ele>202.4</ele>
        <time>2020-03-15T09:59:00Z</time>
      </trkpt>
      <trkpt lat="57.01309874338" lon="14.987923242783">
        <ele>202.2</ele>
        <time>2020-03-15T09:59:01Z</time>
      </trkpt>
      <trkpt lat="57.013183903484" lon="14.987798352473">
        <ele>201.8</ele>
        <time>2020-03-15T09:59:07Z</time>
      </trkpt>
      <trkpt lat="57.01319681161" lon="14.987756191516">
        <ele>201.6</ele>
        <time>2020-03-15T09:59:10Z</time>
      </trkpt>
      <trkpt lat="57.013219610378" lon="14.987736661689">
        <ele>201.6</ele>
        <time>2020-03-15T09:59:12Z</time>
      </trkpt>
      <trkpt lat="57.013280043877" lon="14.98767958095">
        <ele>201.6</ele>
        <time>2020-03-15T09:59:15Z</time>
      </trkpt>
      <trkpt lat="57.013308793794" lon="14.987636078889">
        <ele>201.6</ele>
        <time>2020-03-15T09:59:17Z</time>
      </trkpt>
      <trkpt lat="57.013332095476" lon="14.987590062258">
        <ele>201.2</ele>
        <time>2020-03-15T09:59:19Z</time>
      </trkpt>
      <trkpt lat="57.0134491068" lon="14.987307508409">
        <ele>201.6</ele>
        <time>2020-03-15T09:59:29Z</time>
      </trkpt>
      <trkpt lat="57.013539715139" lon="14.987187731058">
        <ele>200.6</ele>
        <time>2020-03-15T09:59:35Z</time>
      </trkpt>
      <trkpt lat="57.013570476712" lon="14.987122771333">
        <ele>200</ele>
        <time>2020-03-15T09:59:38Z</time>
      </trkpt>
      <trkpt lat="57.013581792277" lon="14.987074240132">
        <ele>199.8</ele>
        <time>2020-03-15T09:59:40Z</time>
      </trkpt>
      <trkpt lat="57.013625545795" lon="14.986987319829">
        <ele>199.6</ele>
        <time>2020-03-15T09:59:45Z</time>
      </trkpt>
      <trkpt lat="57.013753705046" lon="14.986901321535">
        <ele>199.6</ele>
        <time>2020-03-15T09:59:59Z</time>
      </trkpt>
      <trkpt lat="57.013802655342" lon="14.986920851362">
        <ele>200</ele>
        <time>2020-03-15T10:00:01Z</time>
      </trkpt>
      <trkpt lat="57.01383383601" lon="14.986938872447">
        <ele>200.8</ele>
        <time>2020-03-15T10:00:04Z</time>
      </trkpt>
      <trkpt lat="57.013849677801" lon="14.98695203203">
        <ele>201.6</ele>
        <time>2020-03-15T10:00:06Z</time>
      </trkpt>
      <trkpt lat="57.013857724425" lon="14.986957564084">
        <ele>202</ele>
        <time>2020-03-15T10:00:07Z</time>
      </trkpt>
      <trkpt lat="57.013870548732" lon="14.986960497749">
        <ele>202.2</ele>
        <time>2020-03-15T10:00:08Z</time>
      </trkpt>
      <trkpt lat="57.013974065197" lon="14.986953624591">
        <ele>202.2</ele>
        <time>2020-03-15T10:00:15Z</time>
      </trkpt>
      <trkpt lat="57.014042461501" lon="14.986980195214">
        <ele>202.8</ele>
        <time>2020-03-15T10:00:22Z</time>
      </trkpt>
      <trkpt lat="57.014044976071" lon="14.986995198815">
        <ele>202.8</ele>
        <time>2020-03-15T10:00:26Z</time>
      </trkpt>
      <trkpt lat="57.014051933048" lon="14.987039622885">
        <ele>203</ele>
        <time>2020-03-15T10:00:30Z</time>
      </trkpt>
      <trkpt lat="57.014072468703" lon="14.986877097844">
        <ele>203.4</ele>
        <time>2020-03-15T10:02:02Z</time>
      </trkpt>
      <trkpt lat="57.01405595636" lon="14.986795961052">
        <ele>203.2</ele>
        <time>2020-03-15T10:02:05Z</time>
      </trkpt>
      <trkpt lat="57.014016058516" lon="14.986676183701">
        <ele>202.8</ele>
        <time>2020-03-15T10:02:10Z</time>
      </trkpt>
      <trkpt lat="57.014001390191" lon="14.986605440465">
        <ele>202</ele>
        <time>2020-03-15T10:02:14Z</time>
      </trkpt>
      <trkpt lat="57.014003653304" lon="14.986588173751">
        <ele>201.4</ele>
        <time>2020-03-15T10:02:15Z</time>
      </trkpt>
      <trkpt lat="57.014005245865" lon="14.986574343616">
        <ele>201</ele>
        <time>2020-03-15T10:02:16Z</time>
      </trkpt>
      <trkpt lat="57.013998288888" lon="14.986554143237">
        <ele>200.6</ele>
        <time>2020-03-15T10:02:17Z</time>
      </trkpt>
      <trkpt lat="57.01397968107" lon="14.98648432201">
        <ele>199.6</ele>
        <time>2020-03-15T10:02:20Z</time>
      </trkpt>
      <trkpt lat="57.013929808765" lon="14.986367897419">
        <ele>198.6</ele>
        <time>2020-03-15T10:02:25Z</time>
      </trkpt>
      <trkpt lat="57.013899885382" lon="14.986294304337">
        <ele>198.2</ele>
        <time>2020-03-15T10:02:28Z</time>
      </trkpt>
      <trkpt lat="57.013877840985" lon="14.98628148003">
        <ele>198.4</ele>
        <time>2020-03-15T10:02:30Z</time>
      </trkpt>
      <trkpt lat="57.013840457711" lon="14.986213921916">
        <ele>197.4</ele>
        <time>2020-03-15T10:02:38Z</time>
      </trkpt>
      <trkpt lat="57.013825370291" lon="14.986116272781">
        <ele>197.8</ele>
        <time>2020-03-15T10:02:45Z</time>
      </trkpt>
      <trkpt lat="57.013803242075" lon="14.986089702158">
        <ele>198</ele>
        <time>2020-03-15T10:02:47Z</time>
      </trkpt>
      <trkpt lat="57.013787819379" lon="14.986076207299">
        <ele>198.2</ele>
        <time>2020-03-15T10:02:49Z</time>
      </trkpt>
      <trkpt lat="57.013684889647" lon="14.985987442978">
        <ele>196.6</ele>
        <time>2020-03-15T10:02:56Z</time>
      </trkpt>
      <trkpt lat="57.013674076996" lon="14.985986185693">
        <ele>196.6</ele>
        <time>2020-03-15T10:02:57Z</time>
      </trkpt>
      <trkpt lat="57.01359746643" lon="14.98600487733">
        <ele>196.8</ele>
        <time>2020-03-15T10:03:03Z</time>
      </trkpt>
      <trkpt lat="57.013507277186" lon="14.986000602561">
        <ele>197.2</ele>
        <time>2020-03-15T10:03:11Z</time>
      </trkpt>
      <trkpt lat="57.013437623597" lon="14.986010577022">
        <ele>196.4</ele>
        <time>2020-03-15T10:03:15Z</time>
      </trkpt>
      <trkpt lat="57.013409879508" lon="14.986021808768">
        <ele>195.4</ele>
        <time>2020-03-15T10:03:17Z</time>
      </trkpt>
      <trkpt lat="57.013351792941" lon="14.986028849564">
        <ele>194.8</ele>
        <time>2020-03-15T10:03:21Z</time>
      </trkpt>
      <trkpt lat="57.013297729686" lon="14.986016276714">
        <ele>195</ele>
        <time>2020-03-15T10:03:25Z</time>
      </trkpt>
      <trkpt lat="57.013222124948" lon="14.985974283395">
        <ele>194</ele>
        <time>2020-03-15T10:03:29Z</time>
      </trkpt>
      <trkpt lat="57.01311550718" lon="14.985979899268">
        <ele>193.2</ele>
        <time>2020-03-15T10:03:35Z</time>
      </trkpt>
      <trkpt lat="57.013081392847" lon="14.985945533478">
        <ele>193.8</ele>
        <time>2020-03-15T10:03:37Z</time>
      </trkpt>
      <trkpt lat="57.012979804219" lon="14.985766244637">
        <ele>194</ele>
        <time>2020-03-15T10:03:44Z</time>
      </trkpt>
      <trkpt lat="57.013056163328" lon="14.985582848665">
        <ele>195.2</ele>
        <time>2020-03-15T10:03:50Z</time>
      </trkpt>
      <trkpt lat="57.013166050037" lon="14.985302390291">
        <ele>194.8</ele>
        <time>2020-03-15T10:03:58Z</time>
      </trkpt>
      <trkpt lat="57.013228076097" lon="14.985187055347">
        <ele>194.2</ele>
        <time>2020-03-15T10:04:02Z</time>
      </trkpt>
      <trkpt lat="57.013362354135" lon="14.984924785696">
        <ele>194.4</ele>
        <time>2020-03-15T10:04:10Z</time>
      </trkpt>
      <trkpt lat="57.013446173135" lon="14.984632089748">
        <ele>193.4</ele>
        <time>2020-03-15T10:04:16Z</time>
      </trkpt>
      <trkpt lat="57.013454722673" lon="14.984583055633">
        <ele>193.2</ele>
        <time>2020-03-15T10:04:17Z</time>
      </trkpt>
      <trkpt lat="57.013536949112" lon="14.98429245516">
        <ele>192.4</ele>
        <time>2020-03-15T10:04:24Z</time>
      </trkpt>
      <trkpt lat="57.013649853305" lon="14.983965728698">
        <ele>191.8</ele>
        <time>2020-03-15T10:04:30Z</time>
      </trkpt>
      <trkpt lat="57.013677262118" lon="14.983842514768">
        <ele>190.6</ele>
        <time>2020-03-15T10:04:32Z</time>
      </trkpt>
      <trkpt lat="57.013774408339" lon="14.983594829623">
        <ele>189.4</ele>
        <time>2020-03-15T10:04:37Z</time>
      </trkpt>
      <trkpt lat="57.013820257332" lon="14.983424006501">
        <ele>188.4</ele>
        <time>2020-03-15T10:04:40Z</time>
      </trkpt>
      <trkpt lat="57.013924947263" lon="14.983232815362">
        <ele>187.2</ele>
        <time>2020-03-15T10:04:45Z</time>
      </trkpt>
      <trkpt lat="57.014075318549" lon="14.982990494633">
        <ele>186.6</ele>
        <time>2020-03-15T10:04:52Z</time>
      </trkpt>
      <trkpt lat="57.014120329352" lon="14.982942885441">
        <ele>186</ele>
        <time>2020-03-15T10:04:54Z</time>
      </trkpt>
      <trkpt lat="57.014314035061" lon="14.982843643745">
        <ele>186</ele>
        <time>2020-03-15T10:05:01Z</time>
      </trkpt>
      <trkpt lat="57.01449265335" lon="14.982754125053">
        <ele>185.8</ele>
        <time>2020-03-15T10:05:09Z</time>
      </trkpt>
      <trkpt lat="57.01467956972" lon="14.982622864499">
        <ele>186.8</ele>
        <time>2020-03-15T10:05:15Z</time>
      </trkpt>
      <trkpt lat="57.014861959864" lon="14.98250040494">
        <ele>186</ele>
        <time>2020-03-15T10:05:21Z</time>
      </trkpt>
      <trkpt lat="57.015063544559" lon="14.982376017544">
        <ele>186.8</ele>
        <time>2020-03-15T10:05:28Z</time>
      </trkpt>
      <trkpt lat="57.015063544559" lon="14.982376017544">
        <ele>187</ele>
        <time>2020-03-15T10:05:29Z</time>
      </trkpt>
      <trkpt lat="57.015235038233" lon="14.982266801387">
        <ele>186.4</ele>
        <time>2020-03-15T10:05:37Z</time>
      </trkpt>
      <trkpt lat="57.015272672964" lon="14.982246684827">
        <ele>185.8</ele>
        <time>2020-03-15T10:05:39Z</time>
      </trkpt>
      <trkpt lat="57.015475682582" lon="14.982155992669">
        <ele>185.6</ele>
        <time>2020-03-15T10:05:47Z</time>
      </trkpt>
      <trkpt lat="57.0156200189" lon="14.982110395133">
        <ele>187</ele>
        <time>2020-03-15T10:05:52Z</time>
      </trkpt>
      <trkpt lat="57.01582537545" lon="14.982095726808">
        <ele>188</ele>
        <time>2020-03-15T10:05:59Z</time>
      </trkpt>
      <trkpt lat="57.015854376824" lon="14.982088350736">
        <ele>188.2</ele>
        <time>2020-03-15T10:06:00Z</time>
      </trkpt>
      <trkpt lat="57.016039532995" lon="14.982046692693">
        <ele>188.4</ele>
        <time>2020-03-15T10:06:08Z</time>
      </trkpt>
      <trkpt lat="57.016242374975" lon="14.982031437635">
        <ele>188.8</ele>
        <time>2020-03-15T10:06:16Z</time>
      </trkpt>
      <trkpt lat="57.016293839841" lon="14.982031689092">
        <ele>189.2</ele>
        <time>2020-03-15T10:06:18Z</time>
      </trkpt>
      <trkpt lat="57.0164833546" lon="14.982048117616">
        <ele>190</ele>
        <time>2020-03-15T10:06:23Z</time>
      </trkpt>
      <trkpt lat="57.016533729819" lon="14.982057253887">
        <ele>189.6</ele>
        <time>2020-03-15T10:06:27Z</time>
      </trkpt>
      <trkpt lat="57.016582680115" lon="14.98198575628">
        <ele>189.4</ele>
        <time>2020-03-15T10:06:34Z</time>
      </trkpt>
      <trkpt lat="57.016570693998" lon="14.981628184426">
        <ele>188.4</ele>
        <time>2020-03-15T10:06:42Z</time>
      </trkpt>
      <trkpt lat="57.016556863863" lon="14.981446883929">
        <ele>188</ele>
        <time>2020-03-15T10:06:46Z</time>
      </trkpt>
      <trkpt lat="57.016574801129" lon="14.981234402764">
        <ele>187</ele>
        <time>2020-03-15T10:06:52Z</time>
      </trkpt>
      <trkpt lat="57.016578405346" lon="14.981212861281">
        <ele>186.6</ele>
        <time>2020-03-15T10:06:53Z</time>
      </trkpt>
      <trkpt lat="57.016565581039" lon="14.981112529938">
        <ele>186</ele>
        <time>2020-03-15T10:06:56Z</time>
      </trkpt>
      <trkpt lat="57.016553259646" lon="14.981090234084">
        <ele>185.8</ele>
        <time>2020-03-15T10:06:57Z</time>
      </trkpt>
      <trkpt lat="57.016503219703" lon="14.981029213852">
        <ele>186.4</ele>
        <time>2020-03-15T10:07:01Z</time>
      </trkpt>
      <trkpt lat="57.016491065948" lon="14.980979844461">
        <ele>187</ele>
        <time>2020-03-15T10:07:03Z</time>
      </trkpt>
      <trkpt lat="57.016470614112" lon="14.980952854743">
        <ele>187.2</ele>
        <time>2020-03-15T10:07:04Z</time>
      </trkpt>
      <trkpt lat="57.016423172558" lon="14.980625290091">
        <ele>187.2</ele>
        <time>2020-03-15T10:07:12Z</time>
      </trkpt>
      <trkpt lat="57.016357877557" lon="14.980404594664">
        <ele>185.8</ele>
        <time>2020-03-15T10:07:17Z</time>
      </trkpt>
      <trkpt lat="57.016317644437" lon="14.98031440542">
        <ele>185.6</ele>
        <time>2020-03-15T10:07:20Z</time>
      </trkpt>
      <trkpt lat="57.016310771279" lon="14.980114413286">
        <ele>186.4</ele>
        <time>2020-03-15T10:07:26Z</time>
      </trkpt>
      <trkpt lat="57.016321751568" lon="14.980078287297">
        <ele>186.8</ele>
        <time>2020-03-15T10:07:28Z</time>
      </trkpt>
      <trkpt lat="57.016324769052" lon="14.980034114684">
        <ele>187</ele>
        <time>2020-03-15T10:07:30Z</time>
      </trkpt>
      <trkpt lat="57.016323930862" lon="14.979888772538">
        <ele>187.6</ele>
        <time>2020-03-15T10:07:34Z</time>
      </trkpt>
      <trkpt lat="57.016329295278" lon="14.979810317954">
        <ele>188</ele>
        <time>2020-03-15T10:07:36Z</time>
      </trkpt>
      <trkpt lat="57.016337844816" lon="14.97968660111">
        <ele>189.4</ele>
        <time>2020-03-15T10:07:39Z</time>
      </trkpt>
      <trkpt lat="57.016419819798" lon="14.979353923499">
        <ele>189.2</ele>
        <time>2020-03-15T10:07:48Z</time>
      </trkpt>
      <trkpt lat="57.016380676325" lon="14.97900179988">
        <ele>190</ele>
        <time>2020-03-15T10:07:57Z</time>
      </trkpt>
      <trkpt lat="57.016375647185" lon="14.978975229257">
        <ele>190</ele>
        <time>2020-03-15T10:07:58Z</time>
      </trkpt>
      <trkpt lat="57.016523420082" lon="14.978755455839">
        <ele>188.6</ele>
        <time>2020-03-15T10:08:09Z</time>
      </trkpt>
      <trkpt lat="57.016593744223" lon="14.978605252191">
        <ele>188.2</ele>
        <time>2020-03-15T10:08:13Z</time>
      </trkpt>
      <trkpt lat="57.016708576253" lon="14.978331750794">
        <ele>187.6</ele>
        <time>2020-03-15T10:08:20Z</time>
      </trkpt>
      <trkpt lat="57.016752581228" lon="14.978262851576">
        <ele>187.2</ele>
        <time>2020-03-15T10:08:23Z</time>
      </trkpt>
      <trkpt lat="57.016892978053" lon="14.978088843332">
        <ele>186.2</ele>
        <time>2020-03-15T10:08:29Z</time>
      </trkpt>
      <trkpt lat="57.017012503947" lon="14.977827328052">
        <ele>186</ele>
        <time>2020-03-15T10:08:36Z</time>
      </trkpt>
      <trkpt lat="57.017129179995" lon="14.977552653189">
        <ele>185.2</ele>
        <time>2020-03-15T10:08:45Z</time>
      </trkpt>
      <trkpt lat="57.01721006533" lon="14.977419213341">
        <ele>185.2</ele>
        <time>2020-03-15T10:08:49Z</time>
      </trkpt>
      <trkpt lat="57.017307714465" lon="14.977246713839">
        <ele>184</ele>
        <time>2020-03-15T10:08:55Z</time>
      </trkpt>
      <trkpt lat="57.017497732138" lon="14.977096929286">
        <ele>184.4</ele>
        <time>2020-03-15T10:09:02Z</time>
      </trkpt>
      <trkpt lat="57.017598901671" lon="14.977064826609">
        <ele>184</ele>
        <time>2020-03-15T10:09:05Z</time>
      </trkpt>
      <trkpt lat="57.017777268503" lon="14.977025683136">
        <ele>184.2</ele>
        <time>2020-03-15T10:09:11Z</time>
      </trkpt>
      <trkpt lat="57.017926214866" lon="14.97699517302">
        <ele>185</ele>
        <time>2020-03-15T10:09:16Z</time>
      </trkpt>
      <trkpt lat="57.018054625574" lon="14.976959047031">
        <ele>186.2</ele>
        <time>2020-03-15T10:09:21Z</time>
      </trkpt>
      <trkpt lat="57.018245649075" lon="14.976991484984">
        <ele>186.8</ele>
        <time>2020-03-15T10:09:28Z</time>
      </trkpt>
      <trkpt lat="57.018427703943" lon="14.9769800856">
        <ele>187</ele>
        <time>2020-03-15T10:09:36Z</time>
      </trkpt>
      <trkpt lat="57.018476989515" lon="14.976955526633">
        <ele>187.2</ele>
        <time>2020-03-15T10:09:38Z</time>
      </trkpt>
      <trkpt lat="57.018682010789" lon="14.976815213627">
        <ele>186.2</ele>
        <time>2020-03-15T10:09:46Z</time>
      </trkpt>
      <trkpt lat="57.018866244951" lon="14.976740614717">
        <ele>187</ele>
        <time>2020-03-15T10:09:54Z</time>
      </trkpt>
      <trkpt lat="57.019062213773" lon="14.976685294177">
        <ele>186</ele>
        <time>2020-03-15T10:10:02Z</time>
      </trkpt>
      <trkpt lat="57.019261367717" lon="14.97662217847">
        <ele>186.4</ele>
        <time>2020-03-15T10:10:10Z</time>
      </trkpt>
      <trkpt lat="57.019438896359" lon="14.97653081576">
        <ele>186.4</ele>
        <time>2020-03-15T10:10:17Z</time>
      </trkpt>
      <trkpt lat="57.019606534359" lon="14.976346078684">
        <ele>185.8</ele>
        <time>2020-03-15T10:10:24Z</time>
      </trkpt>
      <trkpt lat="57.019692029739" lon="14.976196880864">
        <ele>185</ele>
        <time>2020-03-15T10:10:29Z</time>
      </trkpt>
      <trkpt lat="57.019865870345" lon="14.976118174823">
        <ele>185.8</ele>
        <time>2020-03-15T10:10:38Z</time>
      </trkpt>
      <trkpt lat="57.019945833671" lon="14.976088754354">
        <ele>186.2</ele>
        <time>2020-03-15T10:10:42Z</time>
      </trkpt>
      <trkpt lat="57.020128139996" lon="14.976116833719">
        <ele>186.2</ele>
        <time>2020-03-15T10:10:48Z</time>
      </trkpt>
      <trkpt lat="57.02027616435" lon="14.976178524503">
        <ele>187.2</ele>
        <time>2020-03-15T10:10:53Z</time>
      </trkpt>
      <trkpt lat="57.02039183457" lon="14.976201155633">
        <ele>188.4</ele>
        <time>2020-03-15T10:10:57Z</time>
      </trkpt>
      <trkpt lat="57.020580008225" lon="14.976133932795">
        <ele>189.2</ele>
        <time>2020-03-15T10:11:06Z</time>
      </trkpt>
      <trkpt lat="57.020611356531" lon="14.97611591171">
        <ele>189.6</ele>
        <time>2020-03-15T10:11:07Z</time>
      </trkpt>
      <trkpt lat="57.020786035327" lon="14.976036702755">
        <ele>190.2</ele>
        <time>2020-03-15T10:11:13Z</time>
      </trkpt>
      <trkpt lat="57.020965910901" lon="14.976001331137">
        <ele>189.4</ele>
        <time>2020-03-15T10:11:20Z</time>
      </trkpt>
      <trkpt lat="57.021104966622" lon="14.975960092189">
        <ele>188.8</ele>
        <time>2020-03-15T10:11:28Z</time>
      </trkpt>
      <trkpt lat="57.021214015141" lon="14.975897563215">
        <ele>188.4</ele>
        <time>2020-03-15T10:11:35Z</time>
      </trkpt>
      <trkpt lat="57.021398249303" lon="14.975695307968">
        <ele>189.2</ele>
        <time>2020-03-15T10:11:42Z</time>
      </trkpt>
      <trkpt lat="57.021522133785" lon="14.975399175441">
        <ele>187.6</ele>
        <time>2020-03-15T10:11:49Z</time>
      </trkpt>
      <trkpt lat="57.021678204763" lon="14.975192310149">
        <ele>187.6</ele>
        <time>2020-03-15T10:11:58Z</time>
      </trkpt>
      <trkpt lat="57.021743415945" lon="14.975125254949">
        <ele>188.2</ele>
        <time>2020-03-15T10:12:03Z</time>
      </trkpt>
      <trkpt lat="57.021777195002" lon="14.975162470585">
        <ele>189.8</ele>
        <time>2020-03-15T10:12:07Z</time>
      </trkpt>
      <trkpt lat="57.021801586331" lon="14.975203793352">
        <ele>190.4</ele>
        <time>2020-03-15T10:12:10Z</time>
      </trkpt>
      <trkpt lat="57.021805525824" lon="14.975221311523">
        <ele>190.8</ele>
        <time>2020-03-15T10:12:11Z</time>
      </trkpt>
      <trkpt lat="57.021832264085" lon="14.975272441113">
        <ele>191.2</ele>
        <time>2020-03-15T10:12:13Z</time>
      </trkpt>
      <trkpt lat="57.021870150273" lon="14.975327510196">
        <ele>192</ele>
        <time>2020-03-15T10:12:15Z</time>
      </trkpt>
      <trkpt lat="57.02190225295" lon="14.975458686931">
        <ele>193.2</ele>
        <time>2020-03-15T10:12:20Z</time>
      </trkpt>
      <trkpt lat="57.021923878252" lon="14.975500093517">
        <ele>193.4</ele>
        <time>2020-03-15T10:12:22Z</time>
      </trkpt>
      <trkpt lat="57.0219399715" lon="14.975587684372">
        <ele>193.8</ele>
        <time>2020-03-15T10:12:25Z</time>
      </trkpt>
      <trkpt lat="57.021959166051" lon="14.975673766485">
        <ele>193.6</ele>
        <time>2020-03-15T10:12:28Z</time>
      </trkpt>
      <trkpt lat="57.021985401398" lon="14.97575213725">
        <ele>193.4</ele>
        <time>2020-03-15T10:12:32Z</time>
      </trkpt>
      <trkpt lat="57.021984311751" lon="14.975773175819">
        <ele>193.4</ele>
        <time>2020-03-15T10:12:34Z</time>
      </trkpt>
      <trkpt lat="57.022006356148" lon="14.975893539903">
        <ele>193.4</ele>
        <time>2020-03-15T10:12:39Z</time>
      </trkpt>
      <trkpt lat="57.022094114641" lon="14.976189253335">
        <ele>193</ele>
        <time>2020-03-15T10:12:48Z</time>
      </trkpt>
      <trkpt lat="57.022110710803" lon="14.976241807848">
        <ele>192</ele>
        <time>2020-03-15T10:12:51Z</time>
      </trkpt>
      <trkpt lat="57.022105346387" lon="14.976382037035">
        <ele>190.8</ele>
        <time>2020-03-15T10:12:56Z</time>
      </trkpt>
      <trkpt lat="57.022112722459" lon="14.976517907634">
        <ele>190.4</ele>
        <time>2020-03-15T10:13:01Z</time>
      </trkpt>
      <trkpt lat="57.022163432954" lon="14.976659561744">
        <ele>190.4</ele>
        <time>2020-03-15T10:13:05Z</time>
      </trkpt>
      <trkpt lat="57.022182124591" lon="14.976733490102">
        <ele>190.4</ele>
        <time>2020-03-15T10:13:09Z</time>
      </trkpt>
      <trkpt lat="57.022187572826" lon="14.97674874516">
        <ele>190.2</ele>
        <time>2020-03-15T10:13:10Z</time>
      </trkpt>
      <trkpt lat="57.022220262236" lon="14.976854692376">
        <ele>190</ele>
        <time>2020-03-15T10:13:15Z</time>
      </trkpt>
      <trkpt lat="57.022230404335" lon="14.976943037602">
        <ele>189.8</ele>
        <time>2020-03-15T10:13:18Z</time>
      </trkpt>
      <trkpt lat="57.022236858398" lon="14.977008164965">
        <ele>189.6</ele>
        <time>2020-03-15T10:13:20Z</time>
      </trkpt>
      <trkpt lat="57.02227189474" lon="14.977345117345">
        <ele>190.8</ele>
        <time>2020-03-15T10:13:27Z</time>
      </trkpt>
      <trkpt lat="57.022267117057" lon="14.977575954871">
        <ele>190.4</ele>
        <time>2020-03-15T10:13:33Z</time>
      </trkpt>
      <trkpt lat="57.022278851717" lon="14.977748202916">
        <ele>190.2</ele>
        <time>2020-03-15T10:13:38Z</time>
      </trkpt>
      <trkpt lat="57.022279186993" lon="14.97781659922">
        <ele>189.8</ele>
        <time>2020-03-15T10:13:51Z</time>
      </trkpt>
      <trkpt lat="57.022288323264" lon="14.977877870909">
        <ele>189.8</ele>
        <time>2020-03-15T10:13:56Z</time>
      </trkpt>
      <trkpt lat="57.0222920113" lon="14.977991864749">
        <ele>190.2</ele>
        <time>2020-03-15T10:14:01Z</time>
      </trkpt>
      <trkpt lat="57.022297962449" lon="14.978028493652">
        <ele>190</ele>
        <time>2020-03-15T10:14:02Z</time>
      </trkpt>
      <trkpt lat="57.022313301326" lon="14.97838908299">
        <ele>190</ele>
        <time>2020-03-15T10:14:16Z</time>
      </trkpt>
      <trkpt lat="57.02238337401" lon="14.978559151741">
        <ele>189.8</ele>
        <time>2020-03-15T10:14:23Z</time>
      </trkpt>
      <trkpt lat="57.022358312129" lon="14.978889985334">
        <ele>189.8</ele>
        <time>2020-03-15T10:14:35Z</time>
      </trkpt>
      <trkpt lat="57.022372226083" lon="14.97893893563">
        <ele>190</ele>
        <time>2020-03-15T10:14:37Z</time>
      </trkpt>
      <trkpt lat="57.022370549703" lon="14.978948742453">
        <ele>190.2</ele>
        <time>2020-03-15T10:14:39Z</time>
      </trkpt>
      <trkpt lat="57.022379350698" lon="14.978975983628">
        <ele>190.2</ele>
        <time>2020-03-15T10:14:41Z</time>
      </trkpt>
      <trkpt lat="57.022389660435" lon="14.979092240581">
        <ele>190.6</ele>
        <time>2020-03-15T10:14:46Z</time>
      </trkpt>
      <trkpt lat="57.022392007367" lon="14.979136999927">
        <ele>191</ele>
        <time>2020-03-15T10:14:48Z</time>
      </trkpt>
      <trkpt lat="57.022394521937" lon="14.979183100377">
        <ele>191.4</ele>
        <time>2020-03-15T10:14:50Z</time>
      </trkpt>
      <trkpt lat="57.022382200544" lon="14.979366580168">
        <ele>192</ele>
        <time>2020-03-15T10:14:55Z</time>
      </trkpt>
      <trkpt lat="57.022401730371" lon="14.979470431909">
        <ele>193</ele>
        <time>2020-03-15T10:14:58Z</time>
      </trkpt>
      <trkpt lat="57.022457218549" lon="14.979629268914">
        <ele>194.4</ele>
        <time>2020-03-15T10:15:02Z</time>
      </trkpt>
      <trkpt lat="57.022493260719" lon="14.979732617741">
        <ele>195.8</ele>
        <time>2020-03-15T10:15:05Z</time>
      </trkpt>
      <trkpt lat="57.022549167992" lon="14.979883994855">
        <ele>196.2</ele>
        <time>2020-03-15T10:15:10Z</time>
      </trkpt>
      <trkpt lat="57.022533242382" lon="14.979905703976">
        <ele>196.6</ele>
        <time>2020-03-15T10:15:12Z</time>
      </trkpt>
      <trkpt lat="57.02254179192" lon="14.979999497437">
        <ele>196.8</ele>
        <time>2020-03-15T10:15:18Z</time>
      </trkpt>
      <trkpt lat="57.022541708101" lon="14.980081807695">
        <ele>197</ele>
        <time>2020-03-15T10:15:22Z</time>
      </trkpt>
      <trkpt lat="57.022532320373" lon="14.980144336669">
        <ele>197.2</ele>
        <time>2020-03-15T10:15:25Z</time>
      </trkpt>
      <trkpt lat="57.0225183226" lon="14.980243410727">
        <ele>198</ele>
        <time>2020-03-15T10:15:29Z</time>
      </trkpt>
      <trkpt lat="57.022525195758" lon="14.98033871293">
        <ele>198.6</ele>
        <time>2020-03-15T10:15:32Z</time>
      </trkpt>
      <trkpt lat="57.022515305116" lon="14.980473410063">
        <ele>198.8</ele>
        <time>2020-03-15T10:15:36Z</time>
      </trkpt>
      <trkpt lat="57.022434168324" lon="14.980692512929">
        <ele>199.2</ele>
        <time>2020-03-15T10:15:46Z</time>
      </trkpt>
      <trkpt lat="57.022405418407" lon="14.98076116069">
        <ele>199</ele>
        <time>2020-03-15T10:15:50Z</time>
      </trkpt>
      <trkpt lat="57.022349427315" lon="14.981151086678">
        <ele>199</ele>
        <time>2020-03-15T10:15:59Z</time>
      </trkpt>
      <trkpt lat="57.022334675171" lon="14.981442022427">
        <ele>200.2</ele>
        <time>2020-03-15T10:16:08Z</time>
      </trkpt>
      <trkpt lat="57.022331573868" lon="14.981673446686">
        <ele>201</ele>
        <time>2020-03-15T10:16:14Z</time>
      </trkpt>
      <trkpt lat="57.022346661288" lon="14.981701442232">
        <ele>201.2</ele>
        <time>2020-03-15T10:16:16Z</time>
      </trkpt>
      <trkpt lat="57.022413716488" lon="14.981758020057">
        <ele>202.2</ele>
        <time>2020-03-15T10:16:20Z</time>
      </trkpt>
      <trkpt lat="57.02242193075" lon="14.981778807169">
        <ele>202.6</ele>
        <time>2020-03-15T10:16:23Z</time>
      </trkpt>
      <trkpt lat="57.022441376758" lon="14.981828344198">
        <ele>202.6</ele>
        <time>2020-03-15T10:16:25Z</time>
      </trkpt>
      <trkpt lat="57.022468115019" lon="14.981895902312">
        <ele>202.6</ele>
        <time>2020-03-15T10:16:28Z</time>
      </trkpt>
      <trkpt lat="57.022491919615" lon="14.9819840799">
        <ele>203.4</ele>
        <time>2020-03-15T10:16:33Z</time>
      </trkpt>
      <trkpt lat="57.022529805803" lon="14.98212908677">
        <ele>203.8</ele>
        <time>2020-03-15T10:16:39Z</time>
      </trkpt>
      <trkpt lat="57.022583449963" lon="14.982275434744">
        <ele>203.4</ele>
        <time>2020-03-15T10:16:45Z</time>
      </trkpt>
      <trkpt lat="57.022541456644" lon="14.982357325907">
        <ele>203.8</ele>
        <time>2020-03-15T10:16:51Z</time>
      </trkpt>
      <trkpt lat="57.022361078156" lon="14.982483473502">
        <ele>204.2</ele>
        <time>2020-03-15T10:17:02Z</time>
      </trkpt>
      <trkpt lat="57.022275415138" lon="14.98252974159">
        <ele>204.8</ele>
        <time>2020-03-15T10:17:06Z</time>
      </trkpt>
      <trkpt lat="57.022217831485" lon="14.982623199775">
        <ele>205</ele>
        <time>2020-03-15T10:17:09Z</time>
      </trkpt>
      <trkpt lat="57.022114650296" lon="14.98287507587">
        <ele>204.2</ele>
        <time>2020-03-15T10:17:16Z</time>
      </trkpt>
      <trkpt lat="57.022054635892" lon="14.983215967743">
        <ele>204.4</ele>
        <time>2020-03-15T10:17:24Z</time>
      </trkpt>
      <trkpt lat="57.022054300616" lon="14.983288722635">
        <ele>203.6</ele>
        <time>2020-03-15T10:17:27Z</time>
      </trkpt>
      <trkpt lat="57.022060838498" lon="14.983315628534">
        <ele>203.4</ele>
        <time>2020-03-15T10:17:28Z</time>
      </trkpt>
      <trkpt lat="57.022063269249" lon="14.983319568027">
        <ele>203.2</ele>
        <time>2020-03-15T10:17:29Z</time>
      </trkpt>
      <trkpt lat="57.021926895736" lon="14.983461473594">
        <ele>202.6</ele>
        <time>2020-03-15T10:17:52Z</time>
      </trkpt>
      <trkpt lat="57.021946257925" lon="14.983299367648">
        <ele>204.6</ele>
        <time>2020-03-15T10:18:09Z</time>
      </trkpt>
      <trkpt lat="57.021977354774" lon="14.983055957272">
        <ele>204.6</ele>
        <time>2020-03-15T10:18:16Z</time>
      </trkpt>
      <trkpt lat="57.02175389332" lon="14.983005246777">
        <ele>206</ele>
        <time>2020-03-15T10:18:23Z</time>
      </trkpt>
      <trkpt lat="57.021611736296" lon="14.982990829909">
        <ele>204.2</ele>
        <time>2020-03-15T10:18:29Z</time>
      </trkpt>
      <trkpt lat="57.021559181783" lon="14.982982615647">
        <ele>202.8</ele>
        <time>2020-03-15T10:18:31Z</time>
      </trkpt>
      <trkpt lat="57.021424233193" lon="14.982934335903">
        <ele>201.6</ele>
        <time>2020-03-15T10:18:35Z</time>
      </trkpt>
      <trkpt lat="57.021353154681" lon="14.982911369497">
        <ele>200.6</ele>
        <time>2020-03-15T10:18:37Z</time>
      </trkpt>
      <trkpt lat="57.021280399789" lon="14.982880021191">
        <ele>199.6</ele>
        <time>2020-03-15T10:18:39Z</time>
      </trkpt>
      <trkpt lat="57.021103374061" lon="14.982802740073">
        <ele>199.4</ele>
        <time>2020-03-15T10:18:45Z</time>
      </trkpt>
      <trkpt lat="57.020897766054" lon="14.982793268526">
        <ele>199.2</ele>
        <time>2020-03-15T10:18:53Z</time>
      </trkpt>
      <trkpt lat="57.020689727296" lon="14.98285328293">
        <ele>198.8</ele>
        <time>2020-03-15T10:19:00Z</time>
      </trkpt>
      <trkpt lat="57.020662150845" lon="14.98288429596">
        <ele>198.4</ele>
        <time>2020-03-15T10:19:01Z</time>
      </trkpt>
      <trkpt lat="57.020526280246" lon="14.983103566464">
        <ele>198.4</ele>
        <time>2020-03-15T10:19:07Z</time>
      </trkpt>
      <trkpt lat="57.020349841251" lon="14.983343372623">
        <ele>198.8</ele>
        <time>2020-03-15T10:19:14Z</time>
      </trkpt>
      <trkpt lat="57.020199637603" lon="14.983610922871">
        <ele>199</ele>
        <time>2020-03-15T10:19:20Z</time>
      </trkpt>
      <trkpt lat="57.020149430022" lon="14.983688539265">
        <ele>199.6</ele>
        <time>2020-03-15T10:19:22Z</time>
      </trkpt>
      <trkpt lat="57.020047254661" lon="14.983809238625">
        <ele>200.6</ele>
        <time>2020-03-15T10:19:26Z</time>
      </trkpt>
      <trkpt lat="57.019933512278" lon="14.983890375417">
        <ele>199.6</ele>
        <time>2020-03-15T10:19:30Z</time>
      </trkpt>
      <trkpt lat="57.019877437367" lon="14.983909067054">
        <ele>198.6</ele>
        <time>2020-03-15T10:19:32Z</time>
      </trkpt>
      <trkpt lat="57.019694711947" lon="14.983962040662">
        <ele>198.8</ele>
        <time>2020-03-15T10:19:39Z</time>
      </trkpt>
      <trkpt lat="57.019586166342" lon="14.984140994227">
        <ele>199.8</ele>
        <time>2020-03-15T10:19:44Z</time>
      </trkpt>
      <trkpt lat="57.019518189133" lon="14.984254988067">
        <ele>201</ele>
        <time>2020-03-15T10:19:47Z</time>
      </trkpt>
      <trkpt lat="57.019411403727" lon="14.984519856107">
        <ele>201.6</ele>
        <time>2020-03-15T10:19:54Z</time>
      </trkpt>
      <trkpt lat="57.01936924277" lon="14.984617924337">
        <ele>202.2</ele>
        <time>2020-03-15T10:19:57Z</time>
      </trkpt>
      <trkpt lat="57.019275197852" lon="14.984903244213">
        <ele>203.4</ele>
        <time>2020-03-15T10:20:03Z</time>
      </trkpt>
      <trkpt lat="57.019272180368" lon="14.985237849661">
        <ele>204.4</ele>
        <time>2020-03-15T10:20:09Z</time>
      </trkpt>
      <trkpt lat="57.019383659638" lon="14.98549106686">
        <ele>203.8</ele>
        <time>2020-03-15T10:20:15Z</time>
      </trkpt>
      <trkpt lat="57.019427832251" lon="14.985556110404">
        <ele>203.4</ele>
        <time>2020-03-15T10:20:17Z</time>
      </trkpt>
      <trkpt lat="57.019573258216" lon="14.985896331725">
        <ele>202.8</ele>
        <time>2020-03-15T10:20:24Z</time>
      </trkpt>
      <trkpt lat="57.019661100528" lon="14.986241749824">
        <ele>204</ele>
        <time>2020-03-15T10:20:31Z</time>
      </trkpt>
      <trkpt lat="57.019663112184" lon="14.98628986193">
        <ele>204.4</ele>
        <time>2020-03-15T10:20:33Z</time>
      </trkpt>
      <trkpt lat="57.019644755823" lon="14.986627736319">
        <ele>205.2</ele>
        <time>2020-03-15T10:20:40Z</time>
      </trkpt>
      <trkpt lat="57.019621957055" lon="14.987012968443">
        <ele>205</ele>
        <time>2020-03-15T10:20:47Z</time>
      </trkpt>
      <trkpt lat="57.019663196003" lon="14.987367187537">
        <ele>204.4</ele>
        <time>2020-03-15T10:20:55Z</time>
      </trkpt>
      <trkpt lat="57.019731592307" lon="14.98768209552">
        <ele>203.8</ele>
        <time>2020-03-15T10:21:01Z</time>
      </trkpt>
      <trkpt lat="57.019745254804" lon="14.987995913856">
        <ele>205.8</ele>
        <time>2020-03-15T10:21:08Z</time>
      </trkpt>
      <trkpt lat="57.019727736633" lon="14.988067998196">
        <ele>206.6</ele>
        <time>2020-03-15T10:21:11Z</time>
      </trkpt>
      <trkpt lat="57.019689012255" lon="14.988081241598">
        <ele>206.8</ele>
        <time>2020-03-15T10:21:12Z</time>
      </trkpt>
      <trkpt lat="57.019599074468" lon="14.988141675097">
        <ele>207.6</ele>
        <time>2020-03-15T10:21:19Z</time>
      </trkpt>
      <trkpt lat="57.019578203537" lon="14.988181153846">
        <ele>208</ele>
        <time>2020-03-15T10:21:22Z</time>
      </trkpt>
      <trkpt lat="57.019570743646" lon="14.98819171504">
        <ele>208.6</ele>
        <time>2020-03-15T10:21:24Z</time>
      </trkpt>
      <trkpt lat="57.019534198562" lon="14.988193559058">
        <ele>209</ele>
        <time>2020-03-15T10:21:26Z</time>
      </trkpt>
      <trkpt lat="57.019523888825" lon="14.988201186587">
        <ele>209.2</ele>
        <time>2020-03-15T10:21:28Z</time>
      </trkpt>
      <trkpt lat="57.019552638742" lon="14.988377625582">
        <ele>208.8</ele>
        <time>2020-03-15T10:21:43Z</time>
      </trkpt>
      <trkpt lat="57.019586082523" lon="14.988426156783">
        <ele>208.6</ele>
        <time>2020-03-15T10:21:47Z</time>
      </trkpt>
      <trkpt lat="57.01962069977" lon="14.988460606392">
        <ele>208.6</ele>
        <time>2020-03-15T10:21:51Z</time>
      </trkpt>
      <trkpt lat="57.019642995624" lon="14.988495056001">
        <ele>208.2</ele>
        <time>2020-03-15T10:21:56Z</time>
      </trkpt>
      <trkpt lat="57.01965255099" lon="14.988511316887">
        <ele>208</ele>
        <time>2020-03-15T10:21:57Z</time>
      </trkpt>
      <trkpt lat="57.019666967858" lon="14.988512238896">
        <ele>208</ele>
        <time>2020-03-15T10:21:58Z</time>
      </trkpt>
      <trkpt lat="57.019679456889" lon="14.98852531466">
        <ele>208</ele>
        <time>2020-03-15T10:21:59Z</time>
      </trkpt>
      <trkpt lat="57.019690688635" lon="14.988543922478">
        <ele>208</ele>
        <time>2020-03-15T10:22:01Z</time>
      </trkpt>
      <trkpt lat="57.019700914553" lon="14.98857392968">
        <ele>208</ele>
        <time>2020-03-15T10:22:03Z</time>
      </trkpt>
      <trkpt lat="57.019714325593" lon="14.988611396773">
        <ele>208.4</ele>
        <time>2020-03-15T10:22:06Z</time>
      </trkpt>
      <trkpt lat="57.019714912326" lon="14.988661352897">
        <ele>209</ele>
        <time>2020-03-15T10:22:10Z</time>
      </trkpt>
      <trkpt lat="57.019719019457" lon="14.988674093385">
        <ele>209.2</ele>
        <time>2020-03-15T10:22:11Z</time>
      </trkpt>
      <trkpt lat="57.019731759945" lon="14.988689432262">
        <ele>209.4</ele>
        <time>2020-03-15T10:22:12Z</time>
      </trkpt>
      <trkpt lat="57.019742824053" lon="14.988705441691">
        <ele>210</ele>
        <time>2020-03-15T10:22:14Z</time>
      </trkpt>
      <trkpt lat="57.019753469066" lon="14.988736287083">
        <ele>210.2</ele>
        <time>2020-03-15T10:22:15Z</time>
      </trkpt>
      <trkpt lat="57.019771657789" lon="14.988792445813">
        <ele>211.2</ele>
        <time>2020-03-15T10:22:19Z</time>
      </trkpt>
      <trkpt lat="57.019776016377" lon="14.988819351712">
        <ele>211.4</ele>
        <time>2020-03-15T10:22:20Z</time>
      </trkpt>
      <trkpt lat="57.019790097969" lon="14.988841731385">
        <ele>211.6</ele>
        <time>2020-03-15T10:22:22Z</time>
      </trkpt>
      <trkpt lat="57.019806861769" lon="14.988878276469">
        <ele>212</ele>
        <time>2020-03-15T10:22:25Z</time>
      </trkpt>
      <trkpt lat="57.019820859542" lon="14.988984978056">
        <ele>212.4</ele>
        <time>2020-03-15T10:22:29Z</time>
      </trkpt>
      <trkpt lat="57.019845586147" lon="14.989068545599">
        <ele>213</ele>
        <time>2020-03-15T10:22:31Z</time>
      </trkpt>
      <trkpt lat="57.019862769042" lon="14.98911540042">
        <ele>213.4</ele>
        <time>2020-03-15T10:22:34Z</time>
      </trkpt>
      <trkpt lat="57.01987550953" lon="14.989130236383">
        <ele>213.6</ele>
        <time>2020-03-15T10:22:35Z</time>
      </trkpt>
      <trkpt lat="57.019902163972" lon="14.989148760382">
        <ele>214.2</ele>
        <time>2020-03-15T10:22:37Z</time>
      </trkpt>
      <trkpt lat="57.019917586668" lon="14.989163680164">
        <ele>214.8</ele>
        <time>2020-03-15T10:22:39Z</time>
      </trkpt>
      <trkpt lat="57.019984306592" lon="14.989210199709">
        <ele>215.8</ele>
        <time>2020-03-15T10:22:46Z</time>
      </trkpt>
      <trkpt lat="57.019997801451" lon="14.989221934369">
        <ele>216</ele>
        <time>2020-03-15T10:22:47Z</time>
      </trkpt>
      <trkpt lat="57.020046584109" lon="14.989228807527">
        <ele>216</ele>
        <time>2020-03-15T10:22:51Z</time>
      </trkpt>
      <trkpt lat="57.020084386478" lon="14.989251606295">
        <ele>215.6</ele>
        <time>2020-03-15T10:22:54Z</time>
      </trkpt>
      <trkpt lat="57.020105508866" lon="14.989260994023">
        <ele>215.4</ele>
        <time>2020-03-15T10:22:56Z</time>
      </trkpt>
      <trkpt lat="57.020118165535" lon="14.98927046557">
        <ele>215.4</ele>
        <time>2020-03-15T10:22:58Z</time>
      </trkpt>
      <trkpt lat="57.020153956248" lon="14.989301981514">
        <ele>215.4</ele>
        <time>2020-03-15T10:23:02Z</time>
      </trkpt>
      <trkpt lat="57.020157644284" lon="14.989339029512">
        <ele>215</ele>
        <time>2020-03-15T10:23:05Z</time>
      </trkpt>
      <trkpt lat="57.020156638456" lon="14.989347495231">
        <ele>214.8</ele>
        <time>2020-03-15T10:23:06Z</time>
      </trkpt>
      <trkpt lat="57.020156638456" lon="14.989347495231">
        <ele>214.6</ele>
        <time>2020-03-15T10:23:07Z</time>
      </trkpt>
      <trkpt lat="57.020106095599" lon="14.989443384167">
        <ele>215.2</ele>
        <time>2020-03-15T10:23:15Z</time>
      </trkpt>
      <trkpt lat="57.020073657646" lon="14.989568693572">
        <ele>215.8</ele>
        <time>2020-03-15T10:23:20Z</time>
      </trkpt>
      <trkpt lat="57.020075334026" lon="14.989570956685">
        <ele>216</ele>
        <time>2020-03-15T10:23:21Z</time>
      </trkpt>
      <trkpt lat="57.020078686786" lon="14.989587469028">
        <ele>217</ele>
        <time>2020-03-15T10:23:27Z</time>
      </trkpt>
      <trkpt lat="57.020070388705" lon="14.989584535363">
        <ele>216</ele>
        <time>2020-03-15T10:23:43Z</time>
      </trkpt>
      <trkpt lat="57.02003308925" lon="14.989824425341">
        <ele>216.6</ele>
        <time>2020-03-15T10:23:59Z</time>
      </trkpt>
      <trkpt lat="57.020021689866" lon="14.989847475566">
        <ele>217.2</ele>
        <time>2020-03-15T10:24:01Z</time>
      </trkpt>
      <trkpt lat="57.020013894699" lon="14.989877482768">
        <ele>217.4</ele>
        <time>2020-03-15T10:24:02Z</time>
      </trkpt>
      <trkpt lat="57.019985563877" lon="14.990056771609">
        <ele>218.2</ele>
        <time>2020-03-15T10:24:07Z</time>
      </trkpt>
      <trkpt lat="57.019983468402" lon="14.990238155925">
        <ele>219</ele>
        <time>2020-03-15T10:24:13Z</time>
      </trkpt>
      <trkpt lat="57.019989754827" lon="14.990431274901">
        <ele>219.2</ele>
        <time>2020-03-15T10:24:18Z</time>
      </trkpt>
      <trkpt lat="57.020045326824" lon="14.990739058269">
        <ele>218.2</ele>
        <time>2020-03-15T10:24:26Z</time>
      </trkpt>
      <trkpt lat="57.020129732557" lon="14.991070562414">
        <ele>218.2</ele>
        <time>2020-03-15T10:24:36Z</time>
      </trkpt>
      <trkpt lat="57.020183795812" lon="14.991417992169">
        <ele>218</ele>
        <time>2020-03-15T10:24:44Z</time>
      </trkpt>
      <trkpt lat="57.020203828553" lon="14.991602813064">
        <ele>218</ele>
        <time>2020-03-15T10:24:50Z</time>
      </trkpt>
      <trkpt lat="57.020210701711" lon="14.991963486221">
        <ele>218.6</ele>
        <time>2020-03-15T10:24:58Z</time>
      </trkpt>
      <trkpt lat="57.020218077783" lon="14.992230701193">
        <ele>219</ele>
        <time>2020-03-15T10:25:04Z</time>
      </trkpt>
      <trkpt lat="57.020294939806" lon="14.992605036847">
        <ele>218.6</ele>
        <time>2020-03-15T10:25:13Z</time>
      </trkpt>
      <trkpt lat="57.020340872618" lon="14.992734788659">
        <ele>219.2</ele>
        <time>2020-03-15T10:25:18Z</time>
      </trkpt>
      <trkpt lat="57.020422260867" lon="14.992858337865">
        <ele>220.2</ele>
        <time>2020-03-15T10:25:23Z</time>
      </trkpt>
      <trkpt lat="57.020569111755" lon="14.993047517348">
        <ele>220.8</ele>
        <time>2020-03-15T10:25:30Z</time>
      </trkpt>
      <trkpt lat="57.020732223529" lon="14.99323678065">
        <ele>220.2</ele>
        <time>2020-03-15T10:25:38Z</time>
      </trkpt>
      <trkpt lat="57.020887288679" lon="14.993439371173">
        <ele>221.2</ele>
        <time>2020-03-15T10:25:45Z</time>
      </trkpt>
      <trkpt lat="57.020904387755" lon="14.993467701995">
        <ele>221.4</ele>
        <time>2020-03-15T10:25:46Z</time>
      </trkpt>
      <trkpt lat="57.020959373019" lon="14.993566943691">
        <ele>222.6</ele>
        <time>2020-03-15T10:25:49Z</time>
      </trkpt>
      <trkpt lat="57.021112594151" lon="14.993801050158">
        <ele>223.4</ele>
        <time>2020-03-15T10:25:56Z</time>
      </trkpt>
      <trkpt lat="57.021137991308" lon="14.993829297161">
        <ele>223.8</ele>
        <time>2020-03-15T10:25:57Z</time>
      </trkpt>
      <trkpt lat="57.021292385906" lon="14.994089722794">
        <ele>224</ele>
        <time>2020-03-15T10:26:04Z</time>
      </trkpt>
      <trkpt lat="57.021456754965" lon="14.994378982163">
        <ele>224.2</ele>
        <time>2020-03-15T10:26:11Z</time>
      </trkpt>
      <trkpt lat="57.02158960808" lon="14.994704786616">
        <ele>223.8</ele>
        <time>2020-03-15T10:26:18Z</time>
      </trkpt>
      <trkpt lat="57.021602683844" lon="14.995064705402">
        <ele>223.2</ele>
        <time>2020-03-15T10:26:26Z</time>
      </trkpt>
      <trkpt lat="57.021596229781" lon="14.995421690523">
        <ele>224</ele>
        <time>2020-03-15T10:26:36Z</time>
      </trkpt>
      <trkpt lat="57.021607629165" lon="14.995631321842">
        <ele>224.8</ele>
        <time>2020-03-15T10:26:40Z</time>
      </trkpt>
      <trkpt lat="57.021602348568" lon="14.995964083272">
        <ele>224.8</ele>
        <time>2020-03-15T10:26:48Z</time>
      </trkpt>
      <trkpt lat="57.021559600878" lon="14.996171032383">
        <ele>226</ele>
        <time>2020-03-15T10:26:53Z</time>
      </trkpt>
      <trkpt lat="57.02154266944" lon="14.996445204332">
        <ele>227</ele>
        <time>2020-03-15T10:26:59Z</time>
      </trkpt>
      <trkpt lat="57.021504615614" lon="14.996661038257">
        <ele>228</ele>
        <time>2020-03-15T10:27:05Z</time>
      </trkpt>
      <trkpt lat="57.021492713316" lon="14.996746785094">
        <ele>229.4</ele>
        <time>2020-03-15T10:27:07Z</time>
      </trkpt>
      <trkpt lat="57.021445271762" lon="14.996891875783">
        <ele>230.4</ele>
        <time>2020-03-15T10:27:10Z</time>
      </trkpt>
      <trkpt lat="57.02134318022" lon="14.99720728668">
        <ele>230.8</ele>
        <time>2020-03-15T10:27:18Z</time>
      </trkpt>
      <trkpt lat="57.021325326773" lon="14.997234779312">
        <ele>231.6</ele>
        <time>2020-03-15T10:27:20Z</time>
      </trkpt>
      <trkpt lat="57.021230946579" lon="14.997536862988">
        <ele>231.2</ele>
        <time>2020-03-15T10:27:27Z</time>
      </trkpt>
      <trkpt lat="57.021213428408" lon="14.997888316055">
        <ele>231.4</ele>
        <time>2020-03-15T10:27:35Z</time>
      </trkpt>
      <trkpt lat="57.021215104788" lon="14.998157039769">
        <ele>231.8</ele>
        <time>2020-03-15T10:27:42Z</time>
      </trkpt>
      <trkpt lat="57.021206387612" lon="14.998189812998">
        <ele>232.6</ele>
        <time>2020-03-15T10:27:45Z</time>
      </trkpt>
      <trkpt lat="57.021203705404" lon="14.998205487151">
        <ele>232.8</ele>
        <time>2020-03-15T10:27:46Z</time>
      </trkpt>
      <trkpt lat="57.021202699576" lon="14.998279247871">
        <ele>232.4</ele>
        <time>2020-03-15T10:27:48Z</time>
      </trkpt>
      <trkpt lat="57.021203705404" lon="14.998327695253">
        <ele>232.2</ele>
        <time>2020-03-15T10:27:51Z</time>
      </trkpt>
      <trkpt lat="57.021231365674" lon="14.99867831013">
        <ele>232.2</ele>
        <time>2020-03-15T10:28:00Z</time>
      </trkpt>
      <trkpt lat="57.021225749801" lon="14.998749304823">
        <ele>232.2</ele>
        <time>2020-03-15T10:28:03Z</time>
      </trkpt>
      <trkpt lat="57.021227845276" lon="14.998807307571">
        <ele>232.2</ele>
        <time>2020-03-15T10:28:06Z</time>
      </trkpt>
      <trkpt lat="57.021230192208" lon="14.998856341686">
        <ele>232.8</ele>
        <time>2020-03-15T10:28:09Z</time>
      </trkpt>
      <trkpt lat="57.021237484461" lon="14.998975616123">
        <ele>233.2</ele>
        <time>2020-03-15T10:28:14Z</time>
      </trkpt>
      <trkpt lat="57.021241591592" lon="14.99901526251">
        <ele>233.2</ele>
        <time>2020-03-15T10:28:16Z</time>
      </trkpt>
      <trkpt lat="57.021247542741" lon="14.999058094019">
        <ele>233.2</ele>
        <time>2020-03-15T10:28:18Z</time>
      </trkpt>
      <trkpt lat="57.021254583537" lon="14.999101763718">
        <ele>233.2</ele>
        <time>2020-03-15T10:28:21Z</time>
      </trkpt>
      <trkpt lat="57.021280399789" lon="14.999173093687">
        <ele>233.2</ele>
        <time>2020-03-15T10:28:23Z</time>
      </trkpt>
      <trkpt lat="57.021294062286" lon="14.999227659856">
        <ele>233.2</ele>
        <time>2020-03-15T10:28:26Z</time>
      </trkpt>
      <trkpt lat="57.021310826086" lon="14.999314412521">
        <ele>232.8</ele>
        <time>2020-03-15T10:28:29Z</time>
      </trkpt>
      <trkpt lat="57.021314765579" lon="14.999335199633">
        <ele>232.4</ele>
        <time>2020-03-15T10:28:31Z</time>
      </trkpt>
      <trkpt lat="57.021323985669" lon="14.99942932837">
        <ele>232</ele>
        <time>2020-03-15T10:28:33Z</time>
      </trkpt>
      <trkpt lat="57.021314011208" lon="14.999597972198">
        <ele>231.8</ele>
        <time>2020-03-15T10:28:40Z</time>
      </trkpt>
      <trkpt lat="57.02131049081" lon="14.999664105389">
        <ele>232</ele>
        <time>2020-03-15T10:28:43Z</time>
      </trkpt>
      <trkpt lat="57.021287775861" lon="14.999757647393">
        <ele>232.6</ele>
        <time>2020-03-15T10:28:48Z</time>
      </trkpt>
      <trkpt lat="57.021268078396" lon="14.999806597689">
        <ele>233</ele>
        <time>2020-03-15T10:28:50Z</time>
      </trkpt>
      <trkpt lat="57.021243687067" lon="14.999855045071">
        <ele>233</ele>
        <time>2020-03-15T10:28:52Z</time>
      </trkpt>
      <trkpt lat="57.021168501424" lon="14.999919334244">
        <ele>232.8</ele>
        <time>2020-03-15T10:28:56Z</time>
      </trkpt>
      <trkpt lat="57.02098359671" lon="14.999964847961">
        <ele>233</ele>
        <time>2020-03-15T10:29:05Z</time>
      </trkpt>
      <trkpt lat="57.020904639212" lon="15.000013379162">
        <ele>233.6</ele>
        <time>2020-03-15T10:29:10Z</time>
      </trkpt>
      <trkpt lat="57.02089307219" lon="15.000027125478">
        <ele>234</ele>
        <time>2020-03-15T10:29:12Z</time>
      </trkpt>
      <trkpt lat="57.020848396663" lon="15.000073477385">
        <ele>234</ele>
        <time>2020-03-15T10:29:14Z</time>
      </trkpt>
      <trkpt lat="57.020808331181" lon="15.000107088804">
        <ele>234.4</ele>
        <time>2020-03-15T10:29:17Z</time>
      </trkpt>
      <trkpt lat="57.020789555725" lon="15.000164421">
        <ele>234.6</ele>
        <time>2020-03-15T10:29:19Z</time>
      </trkpt>
      <trkpt lat="57.020778994531" lon="15.000181268619">
        <ele>234.8</ele>
        <time>2020-03-15T10:29:20Z</time>
      </trkpt>
      <trkpt lat="57.020728535493" lon="15.000234409865">
        <ele>235</ele>
        <time>2020-03-15T10:29:24Z</time>
      </trkpt>
      <trkpt lat="57.020712274607" lon="15.000302387074">
        <ele>235</ele>
        <time>2020-03-15T10:29:28Z</time>
      </trkpt>
      <trkpt lat="57.020644297398" lon="15.000482011191">
        <ele>235.4</ele>
        <time>2020-03-15T10:29:33Z</time>
      </trkpt>
      <trkpt lat="57.020631389272" lon="15.000619222894">
        <ele>235.8</ele>
        <time>2020-03-15T10:29:36Z</time>
      </trkpt>
      <trkpt lat="57.020636334593" lon="15.000662724955">
        <ele>235.8</ele>
        <time>2020-03-15T10:29:37Z</time>
      </trkpt>
      <trkpt lat="57.020631053996" lon="15.000780993564">
        <ele>235.6</ele>
        <time>2020-03-15T10:29:40Z</time>
      </trkpt>
      <trkpt lat="57.020629377616" lon="15.000869590247">
        <ele>235.6</ele>
        <time>2020-03-15T10:29:43Z</time>
      </trkpt>
      <trkpt lat="57.020621079535" lon="15.000927844452">
        <ele>235.2</ele>
        <time>2020-03-15T10:29:46Z</time>
      </trkpt>
      <trkpt lat="57.02062233682" lon="15.000945027347">
        <ele>234.6</ele>
        <time>2020-03-15T10:29:49Z</time>
      </trkpt>
      <trkpt lat="57.020626611589" lon="15.000954498894">
        <ele>233.6</ele>
        <time>2020-03-15T10:29:54Z</time>
      </trkpt>
      <trkpt lat="57.020690984581" lon="15.001041335378">
        <ele>234</ele>
        <time>2020-03-15T10:30:34Z</time>
      </trkpt>
      <trkpt lat="57.020706658734" lon="15.001018955705">
        <ele>234</ele>
        <time>2020-03-15T10:30:36Z</time>
      </trkpt>
      <trkpt lat="57.020747730044" lon="15.000892137558">
        <ele>233.8</ele>
        <time>2020-03-15T10:30:40Z</time>
      </trkpt>
      <trkpt lat="57.020827944827" lon="15.000817622467">
        <ele>233.8</ele>
        <time>2020-03-15T10:30:45Z</time>
      </trkpt>
      <trkpt lat="57.020907908153" lon="15.000502043932">
        <ele>233.4</ele>
        <time>2020-03-15T10:30:56Z</time>
      </trkpt>
      <trkpt lat="57.020925258686" lon="15.000355779777">
        <ele>232.6</ele>
        <time>2020-03-15T10:31:01Z</time>
      </trkpt>
      <trkpt lat="57.020951829309" lon="15.000167187027">
        <ele>232.4</ele>
        <time>2020-03-15T10:31:05Z</time>
      </trkpt>
      <trkpt lat="57.021070936108" lon="14.999992927326">
        <ele>232.2</ele>
        <time>2020-03-15T10:31:13Z</time>
      </trkpt>
      <trkpt lat="57.021161125352" lon="14.999838700366">
        <ele>232</ele>
        <time>2020-03-15T10:31:17Z</time>
      </trkpt>
      <trkpt lat="57.021218122272" lon="14.999829647914">
        <ele>231.4</ele>
        <time>2020-03-15T10:31:20Z</time>
      </trkpt>
      <trkpt lat="57.021406715022" lon="14.999885219911">
        <ele>230.6</ele>
        <time>2020-03-15T10:31:26Z</time>
      </trkpt>
      <trkpt lat="57.021514087161" lon="14.999883962626">
        <ele>230.4</ele>
        <time>2020-03-15T10:31:29Z</time>
      </trkpt>
      <trkpt lat="57.021722712652" lon="14.999943893211">
        <ele>229.8</ele>
        <time>2020-03-15T10:31:35Z</time>
      </trkpt>
      <trkpt lat="57.021755821157" lon="14.999953532396">
        <ele>229.2</ele>
        <time>2020-03-15T10:31:37Z</time>
      </trkpt>
      <trkpt lat="57.021930248496" lon="15.000079177077">
        <ele>228.4</ele>
        <time>2020-03-15T10:31:42Z</time>
      </trkpt>
      <trkpt lat="57.022100820161" lon="15.000201049903">
        <ele>228.2</ele>
        <time>2020-03-15T10:31:48Z</time>
      </trkpt>
      <trkpt lat="57.022157146529" lon="15.000231140924">
        <ele>228</ele>
        <time>2020-03-15T10:31:50Z</time>
      </trkpt>
      <trkpt lat="57.022361916346" lon="15.00042509809">
        <ele>227.8</ele>
        <time>2020-03-15T10:31:57Z</time>
      </trkpt>
      <trkpt lat="57.022435006514" lon="15.000742269186">
        <ele>228.2</ele>
        <time>2020-03-15T10:32:04Z</time>
      </trkpt>
      <trkpt lat="57.022502983723" lon="15.001034546039">
        <ele>229</ele>
        <time>2020-03-15T10:32:10Z</time>
      </trkpt>
      <trkpt lat="57.022558639539" lon="15.001198663641">
        <ele>228.6</ele>
        <time>2020-03-15T10:32:14Z</time>
      </trkpt>
      <trkpt lat="57.022589987845" lon="15.001229928128">
        <ele>228</ele>
        <time>2020-03-15T10:32:16Z</time>
      </trkpt>
      <trkpt lat="57.022687972256" lon="15.001371330781">
        <ele>227.8</ele>
        <time>2020-03-15T10:32:22Z</time>
      </trkpt>
      <trkpt lat="57.022771372161" lon="15.00137476736">
        <ele>227.4</ele>
        <time>2020-03-15T10:32:27Z</time>
      </trkpt>
      <trkpt lat="57.022816634421" lon="15.001333779869">
        <ele>227.2</ele>
        <time>2020-03-15T10:32:31Z</time>
      </trkpt>
      <trkpt lat="57.022825519235" lon="15.001325481788">
        <ele>227</ele>
        <time>2020-03-15T10:32:32Z</time>
      </trkpt>
      <trkpt lat="57.022845384338" lon="15.001324392141">
        <ele>226.8</ele>
        <time>2020-03-15T10:32:35Z</time>
      </trkpt>
      <trkpt lat="57.022892825892" lon="15.001151892639">
        <ele>226.6</ele>
        <time>2020-03-15T10:32:57Z</time>
      </trkpt>
      <trkpt lat="57.02291981561" lon="15.001075449711">
        <ele>226.8</ele>
        <time>2020-03-15T10:33:00Z</time>
      </trkpt>
      <trkpt lat="57.023006400637" lon="15.000768420714">
        <ele>227.2</ele>
        <time>2020-03-15T10:33:10Z</time>
      </trkpt>
      <trkpt lat="57.0229793271" lon="15.000605644216">
        <ele>228</ele>
        <time>2020-03-15T10:33:15Z</time>
      </trkpt>
      <trkpt lat="57.023007238827" lon="15.000231979114">
        <ele>228.2</ele>
        <time>2020-03-15T10:33:27Z</time>
      </trkpt>
      <trkpt lat="57.023039928237" lon="14.99989452382">
        <ele>227</ele>
        <time>2020-03-15T10:33:37Z</time>
      </trkpt>
      <trkpt lat="57.022987625181" lon="14.999559918372">
        <ele>227.2</ele>
        <time>2020-03-15T10:33:45Z</time>
      </trkpt>
      <trkpt lat="57.022979410919" lon="14.999286249337">
        <ele>227.6</ele>
        <time>2020-03-15T10:33:54Z</time>
      </trkpt>
      <trkpt lat="57.022998018737" lon="14.999200921595">
        <ele>227.8</ele>
        <time>2020-03-15T10:33:58Z</time>
      </trkpt>
      <trkpt lat="57.023028277396" lon="14.999086424841">
        <ele>226.8</ele>
        <time>2020-03-15T10:34:02Z</time>
      </trkpt>
      <trkpt lat="57.023042023712" lon="14.998910656398">
        <ele>225.8</ele>
        <time>2020-03-15T10:34:06Z</time>
      </trkpt>
      <trkpt lat="57.02303632402" lon="14.998616535527">
        <ele>225</ele>
        <time>2020-03-15T10:34:13Z</time>
      </trkpt>
      <trkpt lat="57.023033893269" lon="14.998262819347">
        <ele>224.8</ele>
        <time>2020-03-15T10:34:22Z</time>
      </trkpt>
      <trkpt lat="57.023053506915" lon="14.998193584853">
        <ele>224.8</ele>
        <time>2020-03-15T10:34:26Z</time>
      </trkpt>
      <trkpt lat="57.023064990118" lon="14.998176401958">
        <ele>225</ele>
        <time>2020-03-15T10:34:28Z</time>
      </trkpt>
      <trkpt lat="57.023091309284" lon="14.99812678111">
        <ele>225</ele>
        <time>2020-03-15T10:34:30Z</time>
      </trkpt>
      <trkpt lat="57.023093069483" lon="14.997809190919">
        <ele>224.8</ele>
        <time>2020-03-15T10:34:41Z</time>
      </trkpt>
      <trkpt lat="57.023050237974" lon="14.997732664172">
        <ele>224.8</ele>
        <time>2020-03-15T10:34:44Z</time>
      </trkpt>
      <trkpt lat="57.023009753397" lon="14.997635769408">
        <ele>224.4</ele>
        <time>2020-03-15T10:34:47Z</time>
      </trkpt>
      <trkpt lat="57.022930460623" lon="14.997372829205">
        <ele>224</ele>
        <time>2020-03-15T10:34:54Z</time>
      </trkpt>
      <trkpt lat="57.022744717719" lon="14.997110727192">
        <ele>224</ele>
        <time>2020-03-15T10:35:03Z</time>
      </trkpt>
      <trkpt lat="57.022677997795" lon="14.996966390874">
        <ele>223.6</ele>
        <time>2020-03-15T10:35:08Z</time>
      </trkpt>
      <trkpt lat="57.022707837359" lon="14.996726836172">
        <ele>222.6</ele>
        <time>2020-03-15T10:35:27Z</time>
      </trkpt>
      <trkpt lat="57.022753183438" lon="14.99678735349">
        <ele>223.2</ele>
        <time>2020-03-15T10:36:03Z</time>
      </trkpt>
      <trkpt lat="57.022761230062" lon="14.996915848017">
        <ele>223.2</ele>
        <time>2020-03-15T10:36:09Z</time>
      </trkpt>
      <trkpt lat="57.022772797084" lon="14.996940239346">
        <ele>223.2</ele>
        <time>2020-03-15T10:36:10Z</time>
      </trkpt>
      <trkpt lat="57.022756955293" lon="14.997057753584">
        <ele>223.4</ele>
        <time>2020-03-15T10:36:26Z</time>
      </trkpt>
      <trkpt lat="57.02275720675" lon="14.997064207647">
        <ele>223.4</ele>
        <time>2020-03-15T10:36:27Z</time>
      </trkpt>
      <trkpt lat="57.022763576994" lon="14.997124222051">
        <ele>223.6</ele>
        <time>2020-03-15T10:36:34Z</time>
      </trkpt>
      <trkpt lat="57.02278151426" lon="14.997180380781">
        <ele>223.8</ele>
        <time>2020-03-15T10:36:38Z</time>
      </trkpt>
      <trkpt lat="57.022784699382" lon="14.997233689665">
        <ele>224</ele>
        <time>2020-03-15T10:36:41Z</time>
      </trkpt>
      <trkpt lat="57.022862734871" lon="14.997213070191">
        <ele>224</ele>
        <time>2020-03-15T10:36:50Z</time>
      </trkpt>
      <trkpt lat="57.02288544982" lon="14.997181135152">
        <ele>224</ele>
        <time>2020-03-15T10:36:52Z</time>
      </trkpt>
      <trkpt lat="57.02292149199" lon="14.997177866211">
        <ele>224.6</ele>
        <time>2020-03-15T10:36:56Z</time>
      </trkpt>
      <trkpt lat="57.022937836695" lon="14.997190774337">
        <ele>224.8</ele>
        <time>2020-03-15T10:36:58Z</time>
      </trkpt>
      <trkpt lat="57.022944374577" lon="14.997178201487">
        <ele>224.6</ele>
        <time>2020-03-15T10:37:05Z</time>
      </trkpt>
      <trkpt lat="57.022939848351" lon="14.997177530935">
        <ele>224.8</ele>
        <time>2020-03-15T10:37:08Z</time>
      </trkpt>
      <trkpt lat="57.022957953255" lon="14.997154732167">
        <ele>224.8</ele>
        <time>2020-03-15T10:37:11Z</time>
      </trkpt>
      <trkpt lat="57.022964155861" lon="14.997113996133">
        <ele>224.8</ele>
        <time>2020-03-15T10:37:14Z</time>
      </trkpt>
      <trkpt lat="57.02297429796" lon="14.997118689997">
        <ele>223.6</ele>
        <time>2020-03-15T10:37:19Z</time>
      </trkpt>
      <trkpt lat="57.022951750649" lon="14.9970044447">
        <ele>223</ele>
        <time>2020-03-15T10:37:32Z</time>
      </trkpt>
      <trkpt lat="57.022960384006" lon="14.996921128614">
        <ele>222.8</ele>
        <time>2020-03-15T10:37:39Z</time>
      </trkpt>
      <trkpt lat="57.022974214141" lon="14.996899922407">
        <ele>222.6</ele>
        <time>2020-03-15T10:37:41Z</time>
      </trkpt>
      <trkpt lat="57.022978740367" lon="14.996856587984">
        <ele>222.2</ele>
        <time>2020-03-15T10:37:45Z</time>
      </trkpt>
      <trkpt lat="57.02295669597" lon="14.996853654319">
        <ele>221.4</ele>
        <time>2020-03-15T10:37:49Z</time>
      </trkpt>
      <trkpt lat="57.022957031246" lon="14.996844518048">
        <ele>221.2</ele>
        <time>2020-03-15T10:37:50Z</time>
      </trkpt>
      <trkpt lat="57.022951918287" lon="14.99681920471">
        <ele>221</ele>
        <time>2020-03-15T10:37:52Z</time>
      </trkpt>
      <trkpt lat="57.022935825039" lon="14.996782575807">
        <ele>221</ele>
        <time>2020-03-15T10:37:54Z</time>
      </trkpt>
      <trkpt lat="57.022929957709" lon="14.996747036551">
        <ele>220.8</ele>
        <time>2020-03-15T10:37:57Z</time>
      </trkpt>
      <trkpt lat="57.022916211393" lon="14.996685178129">
        <ele>220.8</ele>
        <time>2020-03-15T10:38:00Z</time>
      </trkpt>
      <trkpt lat="57.022915289384" lon="14.996651063796">
        <ele>220.6</ele>
        <time>2020-03-15T10:38:03Z</time>
      </trkpt>
      <trkpt lat="57.022910930796" lon="14.996643100991">
        <ele>220.4</ele>
        <time>2020-03-15T10:38:05Z</time>
      </trkpt>
      <trkpt lat="57.022842785949" lon="14.996686686871">
        <ele>220.4</ele>
        <time>2020-03-15T10:38:20Z</time>
      </trkpt>
      <trkpt lat="57.022787716866" lon="14.996716358797">
        <ele>221.6</ele>
        <time>2020-03-15T10:38:23Z</time>
      </trkpt>
      <trkpt lat="57.022717560363" lon="14.996786263843">
        <ele>222.6</ele>
        <time>2020-03-15T10:38:27Z</time>
      </trkpt>
      <trkpt lat="57.022611277871" lon="14.996813756475">
        <ele>223.2</ele>
        <time>2020-03-15T10:38:32Z</time>
      </trkpt>
      <trkpt lat="57.022507845225" lon="14.996853486681">
        <ele>223.8</ele>
        <time>2020-03-15T10:38:37Z</time>
      </trkpt>
      <trkpt lat="57.022485297914" lon="14.996893552163">
        <ele>224.4</ele>
        <time>2020-03-15T10:38:40Z</time>
      </trkpt>
      <trkpt lat="57.022472305969" lon="14.996948537427">
        <ele>225</ele>
        <time>2020-03-15T10:38:43Z</time>
      </trkpt>
      <trkpt lat="57.022474569082" lon="14.996981394475">
        <ele>225</ele>
        <time>2020-03-15T10:38:44Z</time>
      </trkpt>
      <trkpt lat="57.022476748376" lon="14.997029422762">
        <ele>225.2</ele>
        <time>2020-03-15T10:38:46Z</time>
      </trkpt>
      <trkpt lat="57.022477083652" lon="14.997095555953">
        <ele>225.4</ele>
        <time>2020-03-15T10:38:50Z</time>
      </trkpt>
      <trkpt lat="57.022482364249" lon="14.997153726339">
        <ele>225.2</ele>
        <time>2020-03-15T10:38:52Z</time>
      </trkpt>
      <trkpt lat="57.022520166618" lon="14.997255566424">
        <ele>225</ele>
        <time>2020-03-15T10:38:56Z</time>
      </trkpt>
      <trkpt lat="57.022531985097" lon="14.997296805372">
        <ele>225.2</ele>
        <time>2020-03-15T10:38:58Z</time>
      </trkpt>
      <trkpt lat="57.022539444988" lon="14.9973313388">
        <ele>225.2</ele>
        <time>2020-03-15T10:39:00Z</time>
      </trkpt>
      <trkpt lat="57.022552436933" lon="14.997369727902">
        <ele>225.2</ele>
        <time>2020-03-15T10:39:02Z</time>
      </trkpt>
      <trkpt lat="57.02256777581" lon="14.997414990162">
        <ele>225.2</ele>
        <time>2020-03-15T10:39:06Z</time>
      </trkpt>
      <trkpt lat="57.022563836317" lon="14.997451535246">
        <ele>225.2</ele>
        <time>2020-03-15T10:39:08Z</time>
      </trkpt>
      <trkpt lat="57.022590071664" lon="14.997537282083">
        <ele>225.4</ele>
        <time>2020-03-15T10:39:12Z</time>
      </trkpt>
      <trkpt lat="57.022660982538" lon="14.997602996179">
        <ele>225.6</ele>
        <time>2020-03-15T10:39:18Z</time>
      </trkpt>
      <trkpt lat="57.022680177089" lon="14.99759620684">
        <ele>225.6</ele>
        <time>2020-03-15T10:39:20Z</time>
      </trkpt>
      <trkpt lat="57.022809593625" lon="14.997615401391">
        <ele>225.2</ele>
        <time>2020-03-15T10:39:32Z</time>
      </trkpt>
      <trkpt lat="57.022821076828" lon="14.997596793573">
        <ele>225.4</ele>
        <time>2020-03-15T10:39:35Z</time>
      </trkpt>
      <trkpt lat="57.022819148991" lon="14.997601152161">
        <ele>225.6</ele>
        <time>2020-03-15T10:39:39Z</time>
      </trkpt>
      <trkpt lat="57.022713537051" lon="14.997530995658">
        <ele>224.6</ele>
        <time>2020-03-15T10:40:19Z</time>
      </trkpt>
      <trkpt lat="57.022649499335" lon="14.997478608783">
        <ele>225</ele>
        <time>2020-03-15T10:40:23Z</time>
      </trkpt>
      <trkpt lat="57.022627203481" lon="14.997457737852">
        <ele>225</ele>
        <time>2020-03-15T10:40:25Z</time>
      </trkpt>
      <trkpt lat="57.022598285926" lon="14.997424545528">
        <ele>224.8</ele>
        <time>2020-03-15T10:40:29Z</time>
      </trkpt>
      <trkpt lat="57.022561489385" lon="14.99734307346">
        <ele>225.2</ele>
        <time>2020-03-15T10:40:33Z</time>
      </trkpt>
      <trkpt lat="57.022538942074" lon="14.997310719326">
        <ele>225.6</ele>
        <time>2020-03-15T10:40:37Z</time>
      </trkpt>
      <trkpt lat="57.022514466926" lon="14.99726176903">
        <ele>225.6</ele>
        <time>2020-03-15T10:40:40Z</time>
      </trkpt>
      <trkpt lat="57.022486387561" lon="14.997185745197">
        <ele>225.8</ele>
        <time>2020-03-15T10:40:45Z</time>
      </trkpt>
      <trkpt lat="57.02246719301" lon="14.997164874266">
        <ele>225.6</ele>
        <time>2020-03-15T10:40:48Z</time>
      </trkpt>
      <trkpt lat="57.022462331508" lon="14.997158252565">
        <ele>225.8</ele>
        <time>2020-03-15T10:40:50Z</time>
      </trkpt>
      <trkpt lat="57.022453698151" lon="14.997130340838">
        <ele>226</ele>
        <time>2020-03-15T10:40:52Z</time>
      </trkpt>
      <trkpt lat="57.022294190594" lon="14.996979382819">
        <ele>227</ele>
        <time>2020-03-15T10:41:10Z</time>
      </trkpt>
      <trkpt lat="57.022207857024" lon="14.997000169931">
        <ele>228.2</ele>
        <time>2020-03-15T10:41:17Z</time>
      </trkpt>
      <trkpt lat="57.022135605046" lon="14.99696085882">
        <ele>228.8</ele>
        <time>2020-03-15T10:41:21Z</time>
      </trkpt>
      <trkpt lat="57.022065280905" lon="14.99696672615">
        <ele>228.4</ele>
        <time>2020-03-15T10:41:31Z</time>
      </trkpt>
      <trkpt lat="57.022065783819" lon="14.997037385567">
        <ele>228.4</ele>
        <time>2020-03-15T10:41:38Z</time>
      </trkpt>
      <trkpt lat="57.022079278678" lon="14.99712262949">
        <ele>228.4</ele>
        <time>2020-03-15T10:41:40Z</time>
      </trkpt>
      <trkpt lat="57.022117751599" lon="14.997351120084">
        <ele>229.2</ele>
        <time>2020-03-15T10:41:45Z</time>
      </trkpt>
      <trkpt lat="57.022138454892" lon="14.997483973199">
        <ele>230.4</ele>
        <time>2020-03-15T10:41:48Z</time>
      </trkpt>
      <trkpt lat="57.022148177896" lon="14.997617413047">
        <ele>231.4</ele>
        <time>2020-03-15T10:41:51Z</time>
      </trkpt>
      <trkpt lat="57.022177933641" lon="14.99798177424">
        <ele>230.8</ele>
        <time>2020-03-15T10:41:59Z</time>
      </trkpt>
      <trkpt lat="57.022215484553" lon="14.998320738276">
        <ele>230.8</ele>
        <time>2020-03-15T10:42:06Z</time>
      </trkpt>
      <trkpt lat="57.022264099573" lon="14.998665485823">
        <ele>230.8</ele>
        <time>2020-03-15T10:42:13Z</time>
      </trkpt>
      <trkpt lat="57.022308523643" lon="14.998998750167">
        <ele>231.4</ele>
        <time>2020-03-15T10:42:21Z</time>
      </trkpt>
      <trkpt lat="57.022365185287" lon="14.999327153009">
        <ele>231.4</ele>
        <time>2020-03-15T10:42:27Z</time>
      </trkpt>
      <trkpt lat="57.02241522523" lon="14.999658657154">
        <ele>232.2</ele>
        <time>2020-03-15T10:42:33Z</time>
      </trkpt>
      <trkpt lat="57.022418913266" lon="15.000017989207">
        <ele>231.6</ele>
        <time>2020-03-15T10:42:40Z</time>
      </trkpt>
      <trkpt lat="57.02240181419" lon="15.000104406596">
        <ele>231.4</ele>
        <time>2020-03-15T10:42:41Z</time>
      </trkpt>
      <trkpt lat="57.022359569414" lon="15.00016861195">
        <ele>230.8</ele>
        <time>2020-03-15T10:42:44Z</time>
      </trkpt>
      <trkpt lat="57.022307433996" lon="15.000188812329">
        <ele>230.2</ele>
        <time>2020-03-15T10:42:46Z</time>
      </trkpt>
      <trkpt lat="57.022202157332" lon="15.000168276674">
        <ele>229.2</ele>
        <time>2020-03-15T10:42:50Z</time>
      </trkpt>
      <trkpt lat="57.02201624679" lon="15.000051600626">
        <ele>229.4</ele>
        <time>2020-03-15T10:42:57Z</time>
      </trkpt>
      <trkpt lat="57.021896301801" lon="14.999944060849">
        <ele>230.6</ele>
        <time>2020-03-15T10:43:02Z</time>
      </trkpt>
      <trkpt lat="57.021800161408" lon="14.999899720598">
        <ele>231.6</ele>
        <time>2020-03-15T10:43:06Z</time>
      </trkpt>
      <trkpt lat="57.021617184531" lon="14.999823193851">
        <ele>232.6</ele>
        <time>2020-03-15T10:43:13Z</time>
      </trkpt>
      <trkpt lat="57.021589356623" lon="14.999816655969">
        <ele>232.6</ele>
        <time>2020-03-15T10:43:14Z</time>
      </trkpt>
      <trkpt lat="57.02145717406" lon="14.99977801541">
        <ele>234</ele>
        <time>2020-03-15T10:43:19Z</time>
      </trkpt>
      <trkpt lat="57.021350640111" lon="14.999739374851">
        <ele>235.2</ele>
        <time>2020-03-15T10:43:23Z</time>
      </trkpt>
      <trkpt lat="57.021159868067" lon="14.999634601101">
        <ele>236.2</ele>
        <time>2020-03-15T10:43:31Z</time>
      </trkpt>
      <trkpt lat="57.020992565343" lon="14.999472830431">
        <ele>236</ele>
        <time>2020-03-15T10:43:39Z</time>
      </trkpt>
      <trkpt lat="57.020848145206" lon="14.999311478856">
        <ele>236.4</ele>
        <time>2020-03-15T10:43:47Z</time>
      </trkpt>
      <trkpt lat="57.020725098914" lon="14.999155156421">
        <ele>235.8</ele>
        <time>2020-03-15T10:43:52Z</time>
      </trkpt>
      <trkpt lat="57.020563160606" lon="14.998943681084">
        <ele>237.4</ele>
        <time>2020-03-15T10:43:59Z</time>
      </trkpt>
      <trkpt lat="57.02050247565" lon="14.99888115211">
        <ele>238.4</ele>
        <time>2020-03-15T10:44:02Z</time>
      </trkpt>
      <trkpt lat="57.020341124075" lon="14.998710328988">
        <ele>237.6</ele>
        <time>2020-03-15T10:44:10Z</time>
      </trkpt>
      <trkpt lat="57.020325533741" lon="14.998679315958">
        <ele>237.4</ele>
        <time>2020-03-15T10:44:11Z</time>
      </trkpt>
      <trkpt lat="57.020171055324" lon="14.998494914158">
        <ele>238.2</ele>
        <time>2020-03-15T10:44:17Z</time>
      </trkpt>
      <trkpt lat="57.020155213533" lon="14.998475887245">
        <ele>238.4</ele>
        <time>2020-03-15T10:44:18Z</time>
      </trkpt>
      <trkpt lat="57.020135432249" lon="14.998455016314">
        <ele>238.6</ele>
        <time>2020-03-15T10:44:19Z</time>
      </trkpt>
      <trkpt lat="57.020087403962" lon="14.998409334959">
        <ele>239.2</ele>
        <time>2020-03-15T10:44:23Z</time>
      </trkpt>
      <trkpt lat="57.020021019314" lon="14.998358289188">
        <ele>239</ele>
        <time>2020-03-15T10:44:26Z</time>
      </trkpt>
      <trkpt lat="57.019845502328" lon="14.998234488525">
        <ele>238.6</ele>
        <time>2020-03-15T10:44:35Z</time>
      </trkpt>
      <trkpt lat="57.019754223437" lon="14.998183358935">
        <ele>239.8</ele>
        <time>2020-03-15T10:44:38Z</time>
      </trkpt>
      <trkpt lat="57.019571078922" lon="14.998155950122">
        <ele>240.2</ele>
        <time>2020-03-15T10:44:45Z</time>
      </trkpt>
      <trkpt lat="57.01944719444" lon="14.998136336476">
        <ele>240.8</ele>
        <time>2020-03-15T10:44:51Z</time>
      </trkpt>
      <trkpt lat="57.01928877653" lon="14.998110184948">
        <ele>241.8</ele>
        <time>2020-03-15T10:44:58Z</time>
      </trkpt>
      <trkpt lat="57.019105799653" lon="14.998113286251">
        <ele>242</ele>
        <time>2020-03-15T10:45:06Z</time>
      </trkpt>
      <trkpt lat="57.018919721473" lon="14.998056205512">
        <ele>241.8</ele>
        <time>2020-03-15T10:45:16Z</time>
      </trkpt>
      <trkpt lat="57.018730290533" lon="14.998099539935">
        <ele>242.2</ele>
        <time>2020-03-15T10:45:25Z</time>
      </trkpt>
      <trkpt lat="57.0186375029" lon="14.998114794993">
        <ele>242.2</ele>
        <time>2020-03-15T10:45:30Z</time>
      </trkpt>
      <trkpt lat="57.018616631969" lon="14.99815360319">
        <ele>242</ele>
        <time>2020-03-15T10:45:32Z</time>
      </trkpt>
      <trkpt lat="57.018565167103" lon="14.998186376419">
        <ele>242.8</ele>
        <time>2020-03-15T10:45:36Z</time>
      </trkpt>
      <trkpt lat="57.01854278743" lon="14.998200374192">
        <ele>242.8</ele>
        <time>2020-03-15T10:45:38Z</time>
      </trkpt>
      <trkpt lat="57.018528454381" lon="14.998196853794">
        <ele>243</ele>
        <time>2020-03-15T10:45:39Z</time>
      </trkpt>
      <trkpt lat="57.018470200176" lon="14.998199787459">
        <ele>242.4</ele>
        <time>2020-03-15T10:45:45Z</time>
      </trkpt>
      <trkpt lat="57.018410269591" lon="14.998159135244">
        <ele>242.6</ele>
        <time>2020-03-15T10:45:50Z</time>
      </trkpt>
      <trkpt lat="57.018341454192" lon="14.998191992292">
        <ele>242.8</ele>
        <time>2020-03-15T10:45:58Z</time>
      </trkpt>
      <trkpt lat="57.018308680963" lon="14.998214036689">
        <ele>243</ele>
        <time>2020-03-15T10:46:03Z</time>
      </trkpt>
      <trkpt lat="57.018282529435" lon="14.998256030008">
        <ele>243</ele>
        <time>2020-03-15T10:46:06Z</time>
      </trkpt>
      <trkpt lat="57.018257216097" lon="14.998267680849">
        <ele>243</ele>
        <time>2020-03-15T10:46:08Z</time>
      </trkpt>
      <trkpt lat="57.018212959665" lon="14.998308081607">
        <ele>243.4</ele>
        <time>2020-03-15T10:46:13Z</time>
      </trkpt>
      <trkpt lat="57.01820751143" lon="14.998308333064">
        <ele>243.4</ele>
        <time>2020-03-15T10:46:14Z</time>
      </trkpt>
      <trkpt lat="57.018201392643" lon="14.998305986132">
        <ele>242.8</ele>
        <time>2020-03-15T10:46:16Z</time>
      </trkpt>
      <trkpt lat="57.018180186436" lon="14.998314200394">
        <ele>241.8</ele>
        <time>2020-03-15T10:46:20Z</time>
      </trkpt>
      <trkpt lat="57.018151855614" lon="14.998296849861">
        <ele>241.4</ele>
        <time>2020-03-15T10:46:22Z</time>
      </trkpt>
      <trkpt lat="57.018112963598" lon="14.998268854315">
        <ele>241.4</ele>
        <time>2020-03-15T10:46:25Z</time>
      </trkpt>
      <trkpt lat="57.018029898969" lon="14.998217808544">
        <ele>242.8</ele>
        <time>2020-03-15T10:46:29Z</time>
      </trkpt>
      <trkpt lat="57.017836025622" lon="14.998264495727">
        <ele>242.6</ele>
        <time>2020-03-15T10:46:38Z</time>
      </trkpt>
      <trkpt lat="57.017670399278" lon="14.998425260569">
        <ele>243</ele>
        <time>2020-03-15T10:46:48Z</time>
      </trkpt>
      <trkpt lat="57.01748582984" lon="14.998663557986">
        <ele>242.6</ele>
        <time>2020-03-15T10:46:59Z</time>
      </trkpt>
      <trkpt lat="57.017437801553" lon="14.998709239341">
        <ele>242.8</ele>
        <time>2020-03-15T10:47:03Z</time>
      </trkpt>
      <trkpt lat="57.017379044434" lon="14.998786855735">
        <ele>243</ele>
        <time>2020-03-15T10:47:08Z</time>
      </trkpt>
      <trkpt lat="57.01732908831" lon="14.998946363292">
        <ele>243.2</ele>
        <time>2020-03-15T10:47:13Z</time>
      </trkpt>
      <trkpt lat="57.017311570139" lon="14.999012580302">
        <ele>243.4</ele>
        <time>2020-03-15T10:47:15Z</time>
      </trkpt>
      <trkpt lat="57.017139322094" lon="14.999144679046">
        <ele>244</ele>
        <time>2020-03-15T10:47:23Z</time>
      </trkpt>
      <trkpt lat="57.017114008756" lon="14.99914769653">
        <ele>244</ele>
        <time>2020-03-15T10:47:24Z</time>
      </trkpt>
      <trkpt lat="57.016955507027" lon="14.999164292692">
        <ele>244.6</ele>
        <time>2020-03-15T10:47:31Z</time>
      </trkpt>
      <trkpt lat="57.016914016622" lon="14.999180553578">
        <ele>245</ele>
        <time>2020-03-15T10:47:33Z</time>
      </trkpt>
      <trkpt lat="57.016700194353" lon="14.999311646494">
        <ele>246</ele>
        <time>2020-03-15T10:47:44Z</time>
      </trkpt>
      <trkpt lat="57.016678820508" lon="14.999325644267">
        <ele>246</ele>
        <time>2020-03-15T10:47:45Z</time>
      </trkpt>
      <trkpt lat="57.016659290681" lon="14.999346096103">
        <ele>246</ele>
        <time>2020-03-15T10:47:47Z</time>
      </trkpt>
      <trkpt lat="57.016651998428" lon="14.999354310365">
        <ele>245.4</ele>
        <time>2020-03-15T10:47:49Z</time>
      </trkpt>
      <trkpt lat="57.016634983171" lon="14.999392028915">
        <ele>245.2</ele>
        <time>2020-03-15T10:47:51Z</time>
      </trkpt>
      <trkpt lat="57.016600449743" lon="14.999446595084">
        <ele>245</ele>
        <time>2020-03-15T10:47:54Z</time>
      </trkpt>
      <trkpt lat="57.016590475282" lon="14.99945112131">
        <ele>245.2</ele>
        <time>2020-03-15T10:47:56Z</time>
      </trkpt>
      <trkpt lat="57.016554852207" lon="14.99944693036">
        <ele>245</ele>
        <time>2020-03-15T10:47:58Z</time>
      </trkpt>
      <trkpt lat="57.016503052065" lon="14.999453132966">
        <ele>245</ele>
        <time>2020-03-15T10:48:03Z</time>
      </trkpt>
      <trkpt lat="57.016462148393" lon="14.9994687233">
        <ele>244.8</ele>
        <time>2020-03-15T10:48:07Z</time>
      </trkpt>
      <trkpt lat="57.016447396249" lon="14.999469226214">
        <ele>245</ele>
        <time>2020-03-15T10:48:09Z</time>
      </trkpt>
      <trkpt lat="57.016428956069" lon="14.999505268384">
        <ele>245.4</ele>
        <time>2020-03-15T10:48:14Z</time>
      </trkpt>
      <trkpt lat="57.016420406531" lon="14.999598056017">
        <ele>246.4</ele>
        <time>2020-03-15T10:48:23Z</time>
      </trkpt>
      <trkpt lat="57.016428788431" lon="14.999641725716">
        <ele>247.2</ele>
        <time>2020-03-15T10:48:25Z</time>
      </trkpt>
      <trkpt lat="57.016428788431" lon="14.999641725716">
        <ele>247.8</ele>
        <time>2020-03-15T10:48:26Z</time>
      </trkpt>
      <trkpt lat="57.016426860594" lon="14.99970676926">
        <ele>248.8</ele>
        <time>2020-03-15T10:48:28Z</time>
      </trkpt>
      <trkpt lat="57.016430632449" lon="14.999783547464">
        <ele>250</ele>
        <time>2020-03-15T10:48:32Z</time>
      </trkpt>
      <trkpt lat="57.01645737071" lon="15.000002398873">
        <ele>251.2</ele>
        <time>2020-03-15T10:48:39Z</time>
      </trkpt>
      <trkpt lat="57.016491820319" lon="15.000283527799">
        <ele>249.8</ele>
        <time>2020-03-15T10:48:48Z</time>
      </trkpt>
      <trkpt lat="57.016489976301" lon="15.000310852793">
        <ele>249.2</ele>
        <time>2020-03-15T10:48:49Z</time>
      </trkpt>
      <trkpt lat="57.016495592174" lon="15.000398108372">
        <ele>248.6</ele>
        <time>2020-03-15T10:48:51Z</time>
      </trkpt>
      <trkpt lat="57.016497939106" lon="15.000443873546">
        <ele>248.2</ele>
        <time>2020-03-15T10:48:52Z</time>
      </trkpt>
      <trkpt lat="57.01650347116" lon="15.000526602899">
        <ele>248.2</ele>
        <time>2020-03-15T10:48:54Z</time>
      </trkpt>
      <trkpt lat="57.016500788952" lon="15.000680243126">
        <ele>247.4</ele>
        <time>2020-03-15T10:48:58Z</time>
      </trkpt>
      <trkpt lat="57.016534987104" lon="15.000905967693">
        <ele>247</ele>
        <time>2020-03-15T10:49:04Z</time>
      </trkpt>
      <trkpt lat="57.016564072297" lon="15.001138230142">
        <ele>246</ele>
        <time>2020-03-15T10:49:10Z</time>
      </trkpt>
      <trkpt lat="57.016601036476" lon="15.001490269942">
        <ele>244.8</ele>
        <time>2020-03-15T10:49:18Z</time>
      </trkpt>
      <trkpt lat="57.016658787767" lon="15.001805010287">
        <ele>244.6</ele>
        <time>2020-03-15T10:49:25Z</time>
      </trkpt>
      <trkpt lat="57.016716958153" lon="15.00190534163">
        <ele>243.8</ele>
        <time>2020-03-15T10:49:28Z</time>
      </trkpt>
      <trkpt lat="57.016846542327" lon="15.002139615735">
        <ele>243.2</ele>
        <time>2020-03-15T10:49:36Z</time>
      </trkpt>
      <trkpt lat="57.016870346923" lon="15.002196947931">
        <ele>242.8</ele>
        <time>2020-03-15T10:49:38Z</time>
      </trkpt>
      <trkpt lat="57.016903790704" lon="15.002240366173">
        <ele>242</ele>
        <time>2020-03-15T10:49:41Z</time>
      </trkpt>
      <trkpt lat="57.016897839555" lon="15.002250759729">
        <ele>241.8</ele>
        <time>2020-03-15T10:49:44Z</time>
      </trkpt>
      <trkpt lat="57.016886691628" lon="15.00207633239">
        <ele>242.8</ele>
        <time>2020-03-15T10:50:00Z</time>
      </trkpt>
      <trkpt lat="57.016908149292" lon="15.002018748737">
        <ele>244</ele>
        <time>2020-03-15T10:50:02Z</time>
      </trkpt>
      <trkpt lat="57.016945700204" lon="15.001949262786">
        <ele>245</ele>
        <time>2020-03-15T10:50:06Z</time>
      </trkpt>
      <trkpt lat="57.016994231405" lon="15.001893355513">
        <ele>245.6</ele>
        <time>2020-03-15T10:50:10Z</time>
      </trkpt>
      <trkpt lat="57.017167736735" lon="15.001793191808">
        <ele>245.6</ele>
        <time>2020-03-15T10:50:18Z</time>
      </trkpt>
      <trkpt lat="57.017354904562" lon="15.001720353097">
        <ele>244.8</ele>
        <time>2020-03-15T10:50:25Z</time>
      </trkpt>
      <trkpt lat="57.017511981368" lon="15.001741559304">
        <ele>244</ele>
        <time>2020-03-15T10:50:31Z</time>
      </trkpt>
      <trkpt lat="57.017707112" lon="15.001740134381">
        <ele>243.8</ele>
        <time>2020-03-15T10:50:39Z</time>
      </trkpt>
      <trkpt lat="57.017909618704" lon="15.001795035826">
        <ele>244</ele>
        <time>2020-03-15T10:50:48Z</time>
      </trkpt>
      <trkpt lat="57.01810609044" lon="15.001929565321">
        <ele>244</ele>
        <time>2020-03-15T10:50:55Z</time>
      </trkpt>
      <trkpt lat="57.018296778665" lon="15.002153948784">
        <ele>243.2</ele>
        <time>2020-03-15T10:51:02Z</time>
      </trkpt>
      <trkpt lat="57.018344471676" lon="15.002246652598">
        <ele>242.8</ele>
        <time>2020-03-15T10:51:05Z</time>
      </trkpt>
      <trkpt lat="57.018418148577" lon="15.002435412986">
        <ele>241.6</ele>
        <time>2020-03-15T10:51:09Z</time>
      </trkpt>
      <trkpt lat="57.018559383592" lon="15.002667088702">
        <ele>242</ele>
        <time>2020-03-15T10:51:15Z</time>
      </trkpt>
      <trkpt lat="57.018725345212" lon="15.00283154158">
        <ele>240.6</ele>
        <time>2020-03-15T10:51:22Z</time>
      </trkpt>
      <trkpt lat="57.018746048505" lon="15.002858028384">
        <ele>240.4</ele>
        <time>2020-03-15T10:51:23Z</time>
      </trkpt>
      <trkpt lat="57.018867669874" lon="15.003032036628">
        <ele>239</ele>
        <time>2020-03-15T10:51:28Z</time>
      </trkpt>
      <trkpt lat="57.018927851916" lon="15.003147790667">
        <ele>237.8</ele>
        <time>2020-03-15T10:51:31Z</time>
      </trkpt>
      <trkpt lat="57.019014520762" lon="15.003429087231">
        <ele>237</ele>
        <time>2020-03-15T10:51:37Z</time>
      </trkpt>
      <trkpt lat="57.019055172977" lon="15.003795711537">
        <ele>237.4</ele>
        <time>2020-03-15T10:51:45Z</time>
      </trkpt>
      <trkpt lat="57.019069673664" lon="15.003900066192">
        <ele>236.6</ele>
        <time>2020-03-15T10:51:47Z</time>
      </trkpt>
      <trkpt lat="57.019105129101" lon="15.004165604784">
        <ele>236.6</ele>
        <time>2020-03-15T10:51:52Z</time>
      </trkpt>
      <trkpt lat="57.019192971413" lon="15.004485458088">
        <ele>235.8</ele>
        <time>2020-03-15T10:52:01Z</time>
      </trkpt>
      <trkpt lat="57.01928458558" lon="15.004770107412">
        <ele>235.6</ele>
        <time>2020-03-15T10:52:08Z</time>
      </trkpt>
      <trkpt lat="57.019291877833" lon="15.004840180096">
        <ele>235.6</ele>
        <time>2020-03-15T10:52:09Z</time>
      </trkpt>
      <trkpt lat="57.019235216189" lon="15.005173947354">
        <ele>235.4</ele>
        <time>2020-03-15T10:52:15Z</time>
      </trkpt>
      <trkpt lat="57.019238736587" lon="15.005245947875">
        <ele>235.2</ele>
        <time>2020-03-15T10:52:17Z</time>
      </trkpt>
      <trkpt lat="57.019224654995" lon="15.00535868443">
        <ele>234.8</ele>
        <time>2020-03-15T10:52:20Z</time>
      </trkpt>
      <trkpt lat="57.019211746869" lon="15.005436719919">
        <ele>234.8</ele>
        <time>2020-03-15T10:52:23Z</time>
      </trkpt>
      <trkpt lat="57.01922004495" lon="15.005493465382">
        <ele>234.6</ele>
        <time>2020-03-15T10:52:33Z</time>
      </trkpt>
      <trkpt lat="57.019237563121" lon="15.005607710679">
        <ele>234.2</ele>
        <time>2020-03-15T10:52:49Z</time>
      </trkpt>
      <trkpt lat="57.019210908679" lon="15.005630928542">
        <ele>234</ele>
        <time>2020-03-15T10:52:52Z</time>
      </trkpt>
      <trkpt lat="57.019191295033" lon="15.005649452541">
        <ele>233.8</ele>
        <time>2020-03-15T10:52:56Z</time>
      </trkpt>
      <trkpt lat="57.019182661676" lon="15.005671999852">
        <ele>233.8</ele>
        <time>2020-03-15T10:52:58Z</time>
      </trkpt>
      <trkpt lat="57.019153995578" lon="15.0057300026">
        <ele>234.8</ele>
        <time>2020-03-15T10:53:03Z</time>
      </trkpt>
      <trkpt lat="57.019122647272" lon="15.005763865476">
        <ele>235.4</ele>
        <time>2020-03-15T10:53:06Z</time>
      </trkpt>
      <trkpt lat="57.019094819364" lon="15.005789430271">
        <ele>236</ele>
        <time>2020-03-15T10:53:08Z</time>
      </trkpt>
      <trkpt lat="57.01907252351" lon="15.005848606485">
        <ele>237</ele>
        <time>2020-03-15T10:53:11Z</time>
      </trkpt>
      <trkpt lat="57.019066991456" lon="15.005870902339">
        <ele>237.2</ele>
        <time>2020-03-15T10:53:12Z</time>
      </trkpt>
      <trkpt lat="57.019051820217" lon="15.00592362449">
        <ele>237.4</ele>
        <time>2020-03-15T10:53:16Z</time>
      </trkpt>
      <trkpt lat="57.019009826898" lon="15.005992020794">
        <ele>238</ele>
        <time>2020-03-15T10:53:21Z</time>
      </trkpt>
      <trkpt lat="57.018998846609" lon="15.006010544793">
        <ele>238</ele>
        <time>2020-03-15T10:53:22Z</time>
      </trkpt>
      <trkpt lat="57.018984429741" lon="15.006023117643">
        <ele>238.2</ele>
        <time>2020-03-15T10:53:23Z</time>
      </trkpt>
      <trkpt lat="57.018962469163" lon="15.006050442637">
        <ele>238.2</ele>
        <time>2020-03-15T10:53:25Z</time>
      </trkpt>
      <trkpt lat="57.018906813347" lon="15.006124957728">
        <ele>238.6</ele>
        <time>2020-03-15T10:53:29Z</time>
      </trkpt>
      <trkpt lat="57.018867083141" lon="15.006216655714">
        <ele>239</ele>
        <time>2020-03-15T10:53:32Z</time>
      </trkpt>
      <trkpt lat="57.01887387248" lon="15.006293350099">
        <ele>238.6</ele>
        <time>2020-03-15T10:53:34Z</time>
      </trkpt>
      <trkpt lat="57.018890049547" lon="15.006662237518">
        <ele>239</ele>
        <time>2020-03-15T10:53:42Z</time>
      </trkpt>
      <trkpt lat="57.01888393076" lon="15.006861475281">
        <ele>239.2</ele>
        <time>2020-03-15T10:53:47Z</time>
      </trkpt>
      <trkpt lat="57.018890552461" lon="15.007141095465">
        <ele>240.2</ele>
        <time>2020-03-15T10:53:53Z</time>
      </trkpt>
      <trkpt lat="57.01887387248" lon="15.007323066514">
        <ele>239.4</ele>
        <time>2020-03-15T10:53:58Z</time>
      </trkpt>
      <trkpt lat="57.018867586055" lon="15.007481149148">
        <ele>239.2</ele>
        <time>2020-03-15T10:54:03Z</time>
      </trkpt>
      <trkpt lat="57.018899521094" lon="15.00755558042">
        <ele>239</ele>
        <time>2020-03-15T10:54:06Z</time>
      </trkpt>
      <trkpt lat="57.018915195247" lon="15.007581396672">
        <ele>238.6</ele>
        <time>2020-03-15T10:54:10Z</time>
      </trkpt>
      <trkpt lat="57.018936652911" lon="15.007609811313">
        <ele>238.2</ele>
        <time>2020-03-15T10:54:15Z</time>
      </trkpt>
      <trkpt lat="57.018941430594" lon="15.007618528489">
        <ele>238</ele>
        <time>2020-03-15T10:54:16Z</time>
      </trkpt>
      <trkpt lat="57.018992308727" lon="15.007741574781">
        <ele>237.8</ele>
        <time>2020-03-15T10:54:22Z</time>
      </trkpt>
      <trkpt lat="57.019015442771" lon="15.007768145404">
        <ele>237.8</ele>
        <time>2020-03-15T10:54:24Z</time>
      </trkpt>
      <trkpt lat="57.01903564315" lon="15.007787926688">
        <ele>237.6</ele>
        <time>2020-03-15T10:54:26Z</time>
      </trkpt>
      <trkpt lat="57.01905492152" lon="15.007822376297">
        <ele>237</ele>
        <time>2020-03-15T10:54:28Z</time>
      </trkpt>
      <trkpt lat="57.019117869589" lon="15.00790762022">
        <ele>235.8</ele>
        <time>2020-03-15T10:54:32Z</time>
      </trkpt>
      <trkpt lat="57.019150726637" lon="15.007924635477">
        <ele>235.8</ele>
        <time>2020-03-15T10:54:33Z</time>
      </trkpt>
      <trkpt lat="57.019167825713" lon="15.007936621594">
        <ele>235.6</ele>
        <time>2020-03-15T10:54:34Z</time>
      </trkpt>
      <trkpt lat="57.019216356914" lon="15.008001748957">
        <ele>235.6</ele>
        <time>2020-03-15T10:54:38Z</time>
      </trkpt>
      <trkpt lat="57.019225744642" lon="15.008096380608">
        <ele>235</ele>
        <time>2020-03-15T10:54:42Z</time>
      </trkpt>
      <trkpt lat="57.019232701619" lon="15.00818338473">
        <ele>234.8</ele>
        <time>2020-03-15T10:54:44Z</time>
      </trkpt>
      <trkpt lat="57.019232701619" lon="15.00818338473">
        <ele>234.8</ele>
        <time>2020-03-15T10:54:45Z</time>
      </trkpt>
      <trkpt lat="57.019252063808" lon="15.008276591458">
        <ele>234.8</ele>
        <time>2020-03-15T10:54:48Z</time>
      </trkpt>
      <trkpt lat="57.019270755445" lon="15.00831414237">
        <ele>234.8</ele>
        <time>2020-03-15T10:54:49Z</time>
      </trkpt>
      <trkpt lat="57.019303612493" lon="15.008456718489">
        <ele>235</ele>
        <time>2020-03-15T10:54:54Z</time>
      </trkpt>
      <trkpt lat="57.019318532275" lon="15.008498795627">
        <ele>235.6</ele>
        <time>2020-03-15T10:54:56Z</time>
      </trkpt>
      <trkpt lat="57.019320963026" lon="15.008516732893">
        <ele>235.8</ele>
        <time>2020-03-15T10:54:57Z</time>
      </trkpt>
      <trkpt lat="57.019340409034" lon="15.008587224672">
        <ele>236.2</ele>
        <time>2020-03-15T10:55:00Z</time>
      </trkpt>
      <trkpt lat="57.019358681576" lon="15.008649586008">
        <ele>237</ele>
        <time>2020-03-15T10:55:04Z</time>
      </trkpt>
      <trkpt lat="57.019384833104" lon="15.008743966202">
        <ele>238</ele>
        <time>2020-03-15T10:55:29Z</time>
      </trkpt>
      <trkpt lat="57.019472926873" lon="15.008806411357">
        <ele>237.8</ele>
        <time>2020-03-15T10:56:01Z</time>
      </trkpt>
      <trkpt lat="57.019647018936" lon="15.008942365775">
        <ele>238.6</ele>
        <time>2020-03-15T10:56:10Z</time>
      </trkpt>
      <trkpt lat="57.019661603442" lon="15.00895619591">
        <ele>238.6</ele>
        <time>2020-03-15T10:56:11Z</time>
      </trkpt>
      <trkpt lat="57.01976654483" lon="15.009039847272">
        <ele>238.4</ele>
        <time>2020-03-15T10:56:17Z</time>
      </trkpt>
      <trkpt lat="57.019800491525" lon="15.009074799795">
        <ele>238.6</ele>
        <time>2020-03-15T10:56:19Z</time>
      </trkpt>
      <trkpt lat="57.019983384583" lon="15.009195163879">
        <ele>238.2</ele>
        <time>2020-03-15T10:56:29Z</time>
      </trkpt>
      <trkpt lat="57.020048260489" lon="15.009267834952">
        <ele>238.6</ele>
        <time>2020-03-15T10:56:34Z</time>
      </trkpt>
      <trkpt lat="57.020069215239" lon="15.009289963168">
        <ele>238.8</ele>
        <time>2020-03-15T10:56:36Z</time>
      </trkpt>
      <trkpt lat="57.020091343455" lon="15.009326508252">
        <ele>239.4</ele>
        <time>2020-03-15T10:56:38Z</time>
      </trkpt>
      <trkpt lat="57.020171055324" lon="15.009423654473">
        <ele>240.8</ele>
        <time>2020-03-15T10:56:42Z</time>
      </trkpt>
      <trkpt lat="57.02031555928" lon="15.009634962172">
        <ele>240.2</ele>
        <time>2020-03-15T10:56:51Z</time>
      </trkpt>
      <trkpt lat="57.020402814859" lon="15.009941739712">
        <ele>240.4</ele>
        <time>2020-03-15T10:57:00Z</time>
      </trkpt>
      <trkpt lat="57.020478335778" lon="15.01012295639">
        <ele>240.6</ele>
        <time>2020-03-15T10:57:06Z</time>
      </trkpt>
      <trkpt lat="57.020490070438" lon="15.010162183682">
        <ele>240.4</ele>
        <time>2020-03-15T10:57:08Z</time>
      </trkpt>
      <trkpt lat="57.020518652717" lon="15.010260754826">
        <ele>239.8</ele>
        <time>2020-03-15T10:57:15Z</time>
      </trkpt>
      <trkpt lat="57.020533153404" lon="15.01030400543">
        <ele>239.8</ele>
        <time>2020-03-15T10:57:16Z</time>
      </trkpt>
      <trkpt lat="57.020596772025" lon="15.010399894366">
        <ele>239.4</ele>
        <time>2020-03-15T10:57:18Z</time>
      </trkpt>
      <trkpt lat="57.020638765344" lon="15.01046745248">
        <ele>238.6</ele>
        <time>2020-03-15T10:57:21Z</time>
      </trkpt>
      <trkpt lat="57.020752172451" lon="15.010779929712">
        <ele>237.8</ele>
        <time>2020-03-15T10:57:28Z</time>
      </trkpt>
      <trkpt lat="57.020828866836" lon="15.011111852952">
        <ele>237.8</ele>
        <time>2020-03-15T10:57:35Z</time>
      </trkpt>
      <trkpt lat="57.020850743595" lon="15.011211849019">
        <ele>237.6</ele>
        <time>2020-03-15T10:57:36Z</time>
      </trkpt>
      <trkpt lat="57.020916373872" lon="15.011558608222">
        <ele>237.4</ele>
        <time>2020-03-15T10:57:44Z</time>
      </trkpt>
      <trkpt lat="57.020954427698" lon="15.011755415234">
        <ele>236.6</ele>
        <time>2020-03-15T10:57:48Z</time>
      </trkpt>
      <trkpt lat="57.021018884509" lon="15.011970997702">
        <ele>235.2</ele>
        <time>2020-03-15T10:57:53Z</time>
      </trkpt>
      <trkpt lat="57.021115946911" lon="15.012276853233">
        <ele>235</ele>
        <time>2020-03-15T10:58:00Z</time>
      </trkpt>
      <trkpt lat="57.021206052336" lon="15.012419094076">
        <ele>234.2</ele>
        <time>2020-03-15T10:58:04Z</time>
      </trkpt>
      <trkpt lat="57.021271012061" lon="15.012483467068">
        <ele>233</ele>
        <time>2020-03-15T10:58:08Z</time>
      </trkpt>
      <trkpt lat="57.021361536581" lon="15.012568291896">
        <ele>232</ele>
        <time>2020-03-15T10:58:13Z</time>
      </trkpt>
      <trkpt lat="57.02141861732" lon="15.012656972398">
        <ele>230.4</ele>
        <time>2020-03-15T10:58:18Z</time>
      </trkpt>
      <trkpt lat="57.021464466313" lon="15.01269033236">
        <ele>229.2</ele>
        <time>2020-03-15T10:58:22Z</time>
      </trkpt>
      <trkpt lat="57.021471171833" lon="15.012693517482">
        <ele>228.6</ele>
        <time>2020-03-15T10:58:23Z</time>
      </trkpt>
      <trkpt lat="57.021477542077" lon="15.012706174151">
        <ele>227.8</ele>
        <time>2020-03-15T10:58:24Z</time>
      </trkpt>
      <trkpt lat="57.021502268682" lon="15.012737690095">
        <ele>226.8</ele>
        <time>2020-03-15T10:58:26Z</time>
      </trkpt>
      <trkpt lat="57.021515428265" lon="15.012744227977">
        <ele>226.4</ele>
        <time>2020-03-15T10:58:27Z</time>
      </trkpt>
      <trkpt lat="57.021542585621" lon="15.01276409308">
        <ele>225.4</ele>
        <time>2020-03-15T10:58:29Z</time>
      </trkpt>
      <trkpt lat="57.02155775686" lon="15.012771720609">
        <ele>225</ele>
        <time>2020-03-15T10:58:30Z</time>
      </trkpt>
      <trkpt lat="57.02158038799" lon="15.012801308716">
        <ele>224.4</ele>
        <time>2020-03-15T10:58:32Z</time>
      </trkpt>
      <trkpt lat="57.02159882817" lon="15.012823688389">
        <ele>224</ele>
        <time>2020-03-15T10:58:33Z</time>
      </trkpt>
      <trkpt lat="57.021638306919" lon="15.012875488531">
        <ele>223.6</ele>
        <time>2020-03-15T10:58:35Z</time>
      </trkpt>
      <trkpt lat="57.021655908909" lon="15.012912536529">
        <ele>223.2</ele>
        <time>2020-03-15T10:58:36Z</time>
      </trkpt>
      <trkpt lat="57.021688849776" lon="15.013004066877">
        <ele>222.8</ele>
        <time>2020-03-15T10:58:39Z</time>
      </trkpt>
      <trkpt lat="57.021759173917" lon="15.013073971923">
        <ele>222</ele>
        <time>2020-03-15T10:58:43Z</time>
      </trkpt>
      <trkpt lat="57.021785912178" lon="15.013122922219">
        <ele>220.6</ele>
        <time>2020-03-15T10:58:45Z</time>
      </trkpt>
      <trkpt lat="57.021821283796" lon="15.01324521414">
        <ele>219.4</ele>
        <time>2020-03-15T10:58:49Z</time>
      </trkpt>
      <trkpt lat="57.021881801114" lon="15.013291398409">
        <ele>218.6</ele>
        <time>2020-03-15T10:58:52Z</time>
      </trkpt>
      <trkpt lat="57.021923794433" lon="15.013273628781">
        <ele>218.4</ele>
        <time>2020-03-15T10:58:54Z</time>
      </trkpt>
      <trkpt lat="57.022049606752" lon="15.013114205043">
        <ele>219.2</ele>
        <time>2020-03-15T10:59:01Z</time>
      </trkpt>
      <trkpt lat="57.022057485738" lon="15.013067936955">
        <ele>219.8</ele>
        <time>2020-03-15T10:59:02Z</time>
      </trkpt>
      <trkpt lat="57.0220489362" lon="15.012969952544">
        <ele>220</ele>
        <time>2020-03-15T10:59:03Z</time>
      </trkpt>
      <trkpt lat="57.022013061668" lon="15.012610201396">
        <ele>219.6</ele>
        <time>2020-03-15T10:59:11Z</time>
      </trkpt>
      <trkpt lat="57.022029238735" lon="15.012219772494">
        <ele>219</ele>
        <time>2020-03-15T10:59:17Z</time>
      </trkpt>
      <trkpt lat="57.022048684743" lon="15.012220610684">
        <ele>219</ele>
        <time>2020-03-15T10:59:19Z</time>
      </trkpt>
      <trkpt lat="57.022067711656" lon="15.012582876402">
        <ele>220.2</ele>
        <time>2020-03-15T10:59:26Z</time>
      </trkpt>
      <trkpt lat="57.022080200687" lon="15.012936844039">
        <ele>220.4</ele>
        <time>2020-03-15T10:59:32Z</time>
      </trkpt>
      <trkpt lat="57.022065113267" lon="15.013153348516">
        <ele>218.4</ele>
        <time>2020-03-15T10:59:36Z</time>
      </trkpt>
      <trkpt lat="57.021982383914" lon="15.013291733685">
        <ele>218</ele>
        <time>2020-03-15T10:59:41Z</time>
      </trkpt>
      <trkpt lat="57.021999147714" lon="15.013263989596">
        <ele>218</ele>
        <time>2020-03-15T10:59:44Z</time>
      </trkpt>
      <trkpt lat="57.022017671713" lon="15.013242448113">
        <ele>218</ele>
        <time>2020-03-15T10:59:45Z</time>
      </trkpt>
    </trkseg>
  </trk>
</gpx>